BOX614 EDDF-RCTP
Flight info
| Callsign | BOX614 |
|---|---|
| Flight time | 11h 53m |
| Altitude | 29000 |
| Route | SULUS7S/18 SULUS Z650 VEMUT DCT BUDEX DCT MAREG DCT ALAMU DCT BUDOP DCT IRLOX DCT OPT DCT LUGEB DCT UDROS UM859 KARDE UL851 TBN/N0491F310 UM11 REBLO M11 MATAL T916 SUBUT T923 ERLEV M11 RODAR A909 LEMOD N644 DI A466 LEBIB/N0495F330 A466 SULOM M890 LKN A201 LSO A599 LINSO/K0926S1010 A599 ADBAG/K0915S1070 A599 POU B330 TAMOT/N0493F350 B330 BIGEX DCT DALOL V631 ENVAR M750 TONGA TONGA1A |
| Aircraft | B77L/H-SDE1E2E3FGHIJ2J3J4J5M1RWXY/LB1D1 |
Departure
| Time | 2026-05-06 17:25 |
|---|---|
| Airport | Frankfurt Main Airport (EDDF) |
Arrival
| Time | 2026-05-07 05:19 |
|---|---|
| Airport | Taiwan Taoyuan International Airport (RCTP) |
| Time | Latitude | Longitude | Altitude | Speed | Heading |
|---|---|---|---|---|---|
| 2026-05-06 16:45 | 50.03735 | 8.52775 | 348 ft | 0 kts | 339° |
| 2026-05-06 16:46 | 50.03735 | 8.52776 | 348 ft | 0 kts | 339° |
| 2026-05-06 16:48 | 50.03735 | 8.52775 | 347 ft | 0 kts | 339° |
| 2026-05-06 17:00 | 50.03735 | 8.52776 | 347 ft | 0 kts | 339° |
| 2026-05-06 17:08 | 50.03734 | 8.52776 | 347 ft | 0 kts | 339° |
| 2026-05-06 17:11 | 50.03717 | 8.52786 | 358 ft | 4 kts | 339° |
| 2026-05-06 17:11 | 50.03691 | 8.52801 | 358 ft | 4 kts | 338° |
| 2026-05-06 17:12 | 50.03670 | 8.52815 | 357 ft | 3 kts | 342° |
| 2026-05-06 17:12 | 50.03646 | 8.52819 | 357 ft | 3 kts | 28° |
| 2026-05-06 17:12 | 50.03631 | 8.52790 | 356 ft | 3 kts | 74° |
| 2026-05-06 17:12 | 50.03624 | 8.52752 | 356 ft | 2 kts | 71° |
| 2026-05-06 17:13 | 50.03616 | 8.52713 | 356 ft | 3 kts | 70° |
| 2026-05-06 17:13 | 50.03606 | 8.52673 | 356 ft | 3 kts | 69° |
| 2026-05-06 17:13 | 50.03597 | 8.52637 | 356 ft | 1 kts | 69° |
| 2026-05-06 17:13 | 50.03597 | 8.52635 | 356 ft | 6 kts | 69° |
| 2026-05-06 17:17 | 50.03604 | 8.52662 | 356 ft | 7 kts | 69° |
| 2026-05-06 17:17 | 50.03619 | 8.52728 | 356 ft | 6 kts | 70° |
| 2026-05-06 17:18 | 50.03631 | 8.52795 | 356 ft | 6 kts | 82° |
| 2026-05-06 17:18 | 50.03619 | 8.52858 | 356 ft | 6 kts | 130° |
| 2026-05-06 17:18 | 50.03588 | 8.52897 | 353 ft | 6 kts | 132° |
| 2026-05-06 17:18 | 50.03581 | 8.52957 | 351 ft | 6 kts | 73° |
| 2026-05-06 17:19 | 50.03589 | 8.53019 | 349 ft | 6 kts | 103° |
| 2026-05-06 17:19 | 50.03558 | 8.53067 | 351 ft | 6 kts | 153° |
| 2026-05-06 17:19 | 50.03518 | 8.53045 | 353 ft | 7 kts | 231° |
| 2026-05-06 17:19 | 50.03502 | 8.52989 | 351 ft | 5 kts | 249° |
| 2026-05-06 17:20 | 50.03490 | 8.52940 | 348 ft | 5 kts | 249° |
| 2026-05-06 17:20 | 50.03477 | 8.52891 | 337 ft | 5 kts | 246° |
| 2026-05-06 17:20 | 50.03464 | 8.52842 | 337 ft | 5 kts | 246° |
| 2026-05-06 17:20 | 50.03450 | 8.52795 | 338 ft | 5 kts | 246° |
| 2026-05-06 17:21 | 50.03440 | 8.52755 | 335 ft | 0 kts | 249° |
| 2026-05-06 17:22 | 50.03440 | 8.52754 | 335 ft | 1 kts | 249° |
| 2026-05-06 17:23 | 50.03434 | 8.52730 | 335 ft | 3 kts | 249° |
| 2026-05-06 17:23 | 50.03425 | 8.52697 | 340 ft | 3 kts | 249° |
| 2026-05-06 17:23 | 50.03417 | 8.52662 | 336 ft | 4 kts | 249° |
| 2026-05-06 17:23 | 50.03405 | 8.52620 | 337 ft | 5 kts | 240° |
| 2026-05-06 17:24 | 50.03369 | 8.52596 | 335 ft | 6 kts | 183° |
| 2026-05-06 17:24 | 50.03325 | 8.52594 | 337 ft | 9 kts | 181° |
| 2026-05-06 17:24 | 50.03171 | 8.52595 | 338 ft | 43 kts | 180° |
| 2026-05-06 17:24 | 50.02612 | 8.52601 | 337 ft | 117 kts | 180° |
| 2026-05-06 17:25 | 50.01562 | 8.52612 | 335 ft | 184 kts | 179° |
| 2026-05-06 17:25 | 50.00118 | 8.52640 | 424 ft | 219 kts | 179° |
| 2026-05-06 17:25 | 49.98578 | 8.52704 | 942 ft | 227 kts | 181° |
| 2026-05-06 17:25 | 49.96996 | 8.52773 | 1676 ft | 225 kts | 171° |
| 2026-05-06 17:26 | 49.95589 | 8.53836 | 2153 ft | 235 kts | 132° |
| 2026-05-06 17:26 | 49.94821 | 8.56059 | 2475 ft | 237 kts | 109° |
| 2026-05-06 17:26 | 49.94168 | 8.58435 | 2826 ft | 242 kts | 116° |
| 2026-05-06 17:26 | 49.93675 | 8.60881 | 3224 ft | 244 kts | 90° |
| 2026-05-06 17:27 | 49.93758 | 8.63587 | 3312 ft | 260 kts | 89° |
| 2026-05-06 17:27 | 49.93762 | 8.66498 | 3540 ft | 275 kts | 92° |
| 2026-05-06 17:27 | 49.93408 | 8.69428 | 3824 ft | 282 kts | 121° |
| 2026-05-06 17:27 | 49.92103 | 8.71619 | 4309 ft | 277 kts | 150° |
| 2026-05-06 17:28 | 49.90475 | 8.73235 | 4774 ft | 282 kts | 149° |
| 2026-05-06 17:28 | 49.88853 | 8.75003 | 5372 ft | 284 kts | 142° |
| 2026-05-06 17:28 | 49.87615 | 8.77409 | 5787 ft | 292 kts | 118° |
| 2026-05-06 17:28 | 49.86700 | 8.80247 | 6297 ft | 296 kts | 120° |
| 2026-05-06 17:29 | 49.85717 | 8.83050 | 6878 ft | 297 kts | 122° |
| 2026-05-06 17:29 | 49.84701 | 8.85850 | 7493 ft | 298 kts | 122° |
| 2026-05-06 17:29 | 49.83680 | 8.88652 | 8100 ft | 300 kts | 122° |
| 2026-05-06 17:29 | 49.82646 | 8.91492 | 8657 ft | 303 kts | 122° |
| 2026-05-06 17:30 | 49.81605 | 8.94350 | 9239 ft | 306 kts | 122° |
| 2026-05-06 17:30 | 49.80556 | 8.97232 | 9831 ft | 308 kts | 121° |
| 2026-05-06 17:30 | 49.79491 | 9.00160 | 10188 ft | 319 kts | 121° |
| 2026-05-06 17:30 | 49.78367 | 9.03239 | 10308 ft | 338 kts | 122° |
| 2026-05-06 17:31 | 49.77184 | 9.06476 | 10465 ft | 355 kts | 121° |
| 2026-05-06 17:31 | 49.75998 | 9.09930 | 10619 ft | 369 kts | 113° |
| 2026-05-06 17:31 | 49.75247 | 9.13815 | 10731 ft | 385 kts | 104° |
| 2026-05-06 17:31 | 49.74692 | 9.17834 | 10773 ft | 386 kts | 103° |
| 2026-05-06 17:32 | 49.74115 | 9.21904 | 11099 ft | 388 kts | 104° |
| 2026-05-06 17:32 | 49.73494 | 9.25953 | 11847 ft | 387 kts | 105° |
| 2026-05-06 17:32 | 49.72852 | 9.29996 | 12547 ft | 389 kts | 105° |
| 2026-05-06 17:32 | 49.72194 | 9.34070 | 13161 ft | 393 kts | 105° |
| 2026-05-06 17:33 | 49.71524 | 9.38182 | 13756 ft | 396 kts | 105° |
| 2026-05-06 17:33 | 49.70847 | 9.42322 | 14324 ft | 398 kts | 105° |
| 2026-05-06 17:33 | 49.70163 | 9.46491 | 14854 ft | 402 kts | 105° |
| 2026-05-06 17:33 | 49.69473 | 9.50693 | 15424 ft | 404 kts | 105° |
| 2026-05-06 17:34 | 49.68780 | 9.54905 | 15981 ft | 406 kts | 105° |
| 2026-05-06 17:34 | 49.68079 | 9.59154 | 16515 ft | 410 kts | 105° |
| 2026-05-06 17:34 | 49.67373 | 9.63432 | 17041 ft | 412 kts | 105° |
| 2026-05-06 17:34 | 49.67013 | 9.67824 | 17369 ft | 419 kts | 86° |
| 2026-05-06 17:35 | 49.67657 | 9.72215 | 17736 ft | 420 kts | 72° |
| 2026-05-06 17:35 | 49.68562 | 9.76537 | 18089 ft | 427 kts | 75° |
| 2026-05-06 17:35 | 49.69366 | 9.80968 | 18542 ft | 429 kts | 76° |
| 2026-05-06 17:36 | 49.70915 | 9.89911 | 19515 ft | 433 kts | 76° |
| 2026-05-06 17:36 | 49.71751 | 9.94380 | 19904 ft | 436 kts | 70° |
| 2026-05-06 17:36 | 49.73199 | 9.98511 | 20119 ft | 441 kts | 55° |
| 2026-05-06 17:36 | 49.75058 | 10.02340 | 20351 ft | 449 kts | 53° |
| 2026-05-06 17:37 | 49.76948 | 10.06207 | 20802 ft | 451 kts | 53° |
| 2026-05-06 17:37 | 49.78795 | 10.10050 | 21311 ft | 451 kts | 54° |
| 2026-05-06 17:37 | 49.80652 | 10.13983 | 21750 ft | 454 kts | 54° |
| 2026-05-06 17:37 | 49.82505 | 10.17964 | 22147 ft | 457 kts | 55° |
| 2026-05-06 17:38 | 49.84356 | 10.21981 | 22539 ft | 460 kts | 55° |
| 2026-05-06 17:38 | 49.86219 | 10.26044 | 22953 ft | 463 kts | 55° |
| 2026-05-06 17:38 | 49.88089 | 10.30135 | 23359 ft | 466 kts | 55° |
| 2026-05-06 17:38 | 49.89965 | 10.34243 | 23701 ft | 468 kts | 55° |
| 2026-05-06 17:39 | 49.91856 | 10.38387 | 24056 ft | 471 kts | 55° |
| 2026-05-06 17:39 | 49.93750 | 10.42543 | 24390 ft | 473 kts | 56° |
| 2026-05-06 17:39 | 49.95653 | 10.46725 | 24738 ft | 476 kts | 56° |
| 2026-05-06 17:39 | 49.97554 | 10.50922 | 25092 ft | 475 kts | 57° |
| 2026-05-06 17:40 | 49.99106 | 10.55452 | 25234 ft | 478 kts | 73° |
| 2026-05-06 17:40 | 49.99774 | 10.60502 | 25428 ft | 478 kts | 89° |
| 2026-05-06 17:40 | 49.99634 | 10.65638 | 25760 ft | 475 kts | 101° |
| 2026-05-06 17:40 | 49.99097 | 10.70691 | 26071 ft | 475 kts | 102° |
| 2026-05-06 17:41 | 49.98572 | 10.75726 | 26373 ft | 478 kts | 102° |
| 2026-05-06 17:41 | 49.98063 | 10.80780 | 26687 ft | 480 kts | 102° |
| 2026-05-06 17:41 | 49.97558 | 10.85919 | 27023 ft | 482 kts | 102° |
| 2026-05-06 17:41 | 49.97057 | 10.91084 | 27347 ft | 484 kts | 102° |
| 2026-05-06 17:42 | 49.96557 | 10.96269 | 27667 ft | 486 kts | 102° |
| 2026-05-06 17:42 | 49.96054 | 11.01489 | 27875 ft | 490 kts | 102° |
| 2026-05-06 17:42 | 49.95543 | 11.06751 | 28038 ft | 495 kts | 102° |
| 2026-05-06 17:42 | 49.95026 | 11.12056 | 28330 ft | 497 kts | 102° |
| 2026-05-06 17:43 | 49.94507 | 11.17361 | 28644 ft | 498 kts | 102° |
| 2026-05-06 17:43 | 49.93980 | 11.22705 | 28692 ft | 503 kts | 102° |
| 2026-05-06 17:43 | 49.93450 | 11.28057 | 28799 ft | 502 kts | 102° |
| 2026-05-06 17:43 | 49.92914 | 11.33431 | 28798 ft | 506 kts | 103° |
| 2026-05-06 17:44 | 49.91837 | 11.44178 | 28732 ft | 507 kts | 103° |
| 2026-05-06 17:44 | 49.90735 | 11.55074 | 28756 ft | 508 kts | 103° |
| 2026-05-06 17:45 | 49.89634 | 11.65841 | 28771 ft | 510 kts | 103° |
| 2026-05-06 17:45 | 49.88511 | 11.76721 | 28759 ft | 511 kts | 103° |
| 2026-05-06 17:46 | 49.87375 | 11.87624 | 28741 ft | 512 kts | 103° |
| 2026-05-06 17:46 | 49.86228 | 11.98527 | 28755 ft | 512 kts | 103° |
| 2026-05-06 17:47 | 49.85072 | 12.09417 | 28758 ft | 512 kts | 103° |
| 2026-05-06 17:47 | 49.83906 | 12.20306 | 28736 ft | 512 kts | 104° |
| 2026-05-06 17:48 | 49.82738 | 12.31122 | 28704 ft | 512 kts | 104° |
| 2026-05-06 17:48 | 49.81361 | 12.41907 | 28722 ft | 507 kts | 112° |
| 2026-05-06 17:49 | 49.78579 | 12.51801 | 28721 ft | 498 kts | 125° |
| 2026-05-06 17:49 | 49.74714 | 12.60585 | 28723 ft | 494 kts | 130° |
| 2026-05-06 17:50 | 49.70748 | 12.69280 | 28733 ft | 495 kts | 130° |
| 2026-05-06 17:50 | 49.66810 | 12.78001 | 28725 ft | 495 kts | 130° |
| 2026-05-06 17:51 | 49.62882 | 12.86729 | 28729 ft | 495 kts | 130° |
| 2026-05-06 17:51 | 49.58945 | 12.95454 | 28728 ft | 495 kts | 130° |
| 2026-05-06 17:52 | 49.55007 | 13.04147 | 28739 ft | 495 kts | 130° |
| 2026-05-06 17:52 | 49.51055 | 13.12836 | 28739 ft | 495 kts | 130° |
| 2026-05-06 17:53 | 49.47132 | 13.21437 | 28739 ft | 494 kts | 130° |
| 2026-05-06 17:53 | 49.43151 | 13.30135 | 28736 ft | 494 kts | 130° |
| 2026-05-06 17:54 | 49.39218 | 13.38702 | 28740 ft | 494 kts | 130° |
| 2026-05-06 17:54 | 49.35251 | 13.47313 | 28694 ft | 494 kts | 130° |
| 2026-05-06 17:55 | 49.31279 | 13.55909 | 28723 ft | 495 kts | 130° |
| 2026-05-06 17:55 | 49.27288 | 13.64519 | 28727 ft | 495 kts | 130° |
| 2026-05-06 17:56 | 49.23964 | 13.71667 | 28729 ft | 496 kts | 130° |
| 2026-05-06 17:56 | 49.19951 | 13.80273 | 28732 ft | 497 kts | 130° |
| 2026-05-06 17:57 | 49.15927 | 13.88875 | 28728 ft | 497 kts | 131° |
| 2026-05-06 17:57 | 49.11240 | 13.98860 | 28705 ft | 498 kts | 131° |
| 2026-05-06 17:58 | 49.07854 | 14.06052 | 28717 ft | 497 kts | 131° |
| 2026-05-06 17:58 | 49.03806 | 14.14623 | 28711 ft | 497 kts | 131° |
| 2026-05-06 17:59 | 48.99760 | 14.23168 | 28651 ft | 497 kts | 132° |
| 2026-05-06 17:59 | 48.95786 | 14.31690 | 28702 ft | 500 kts | 128° |
| 2026-05-06 18:00 | 48.92593 | 14.41204 | 28704 ft | 510 kts | 118° |
| 2026-05-06 18:00 | 48.89924 | 14.51219 | 28708 ft | 512 kts | 118° |
| 2026-05-06 18:01 | 48.87215 | 14.61234 | 28665 ft | 513 kts | 118° |
| 2026-05-06 18:01 | 48.84464 | 14.71230 | 28691 ft | 513 kts | 118° |
| 2026-05-06 18:02 | 48.81705 | 14.81174 | 28706 ft | 514 kts | 118° |
| 2026-05-06 18:02 | 48.78917 | 14.91176 | 28701 ft | 515 kts | 118° |
| 2026-05-06 18:03 | 48.76123 | 15.01169 | 28670 ft | 514 kts | 118° |
| 2026-05-06 18:03 | 48.73329 | 15.11120 | 28688 ft | 514 kts | 119° |
| 2026-05-06 18:04 | 48.70523 | 15.21073 | 28708 ft | 513 kts | 119° |
| 2026-05-06 18:04 | 48.67713 | 15.30999 | 28704 ft | 513 kts | 119° |
| 2026-05-06 18:05 | 48.64895 | 15.40912 | 28693 ft | 512 kts | 118° |
| 2026-05-06 18:05 | 48.62081 | 15.50769 | 28702 ft | 511 kts | 118° |
| 2026-05-06 18:06 | 48.59256 | 15.60625 | 28700 ft | 511 kts | 119° |
| 2026-05-06 18:06 | 48.56428 | 15.70450 | 28704 ft | 510 kts | 119° |
| 2026-05-06 18:07 | 48.53593 | 15.80259 | 28689 ft | 509 kts | 118° |
| 2026-05-06 18:07 | 48.50751 | 15.90051 | 28716 ft | 510 kts | 118° |
| 2026-05-06 18:08 | 48.47895 | 15.99852 | 28732 ft | 510 kts | 118° |
| 2026-05-06 18:08 | 48.45045 | 16.09594 | 28729 ft | 511 kts | 119° |
| 2026-05-06 18:09 | 48.42165 | 16.19400 | 28698 ft | 512 kts | 118° |
| 2026-05-06 18:09 | 48.39276 | 16.29199 | 28736 ft | 513 kts | 118° |
| 2026-05-06 18:10 | 48.36368 | 16.39024 | 28757 ft | 514 kts | 118° |
| 2026-05-06 18:10 | 48.33451 | 16.48838 | 28761 ft | 514 kts | 118° |
| 2026-05-06 18:11 | 48.30520 | 16.58662 | 28763 ft | 514 kts | 118° |
| 2026-05-06 18:11 | 48.27605 | 16.68391 | 28763 ft | 515 kts | 118° |
| 2026-05-06 18:12 | 48.24656 | 16.78194 | 28768 ft | 515 kts | 118° |
| 2026-05-06 18:12 | 48.21700 | 16.87988 | 28767 ft | 515 kts | 118° |
| 2026-05-06 18:13 | 48.18735 | 16.97768 | 28770 ft | 514 kts | 119° |
| 2026-05-06 18:13 | 48.15642 | 17.07428 | 28773 ft | 514 kts | 120° |
| 2026-05-06 18:14 | 48.12502 | 17.17009 | 28774 ft | 514 kts | 119° |
| 2026-05-06 18:14 | 48.09538 | 17.26683 | 28775 ft | 514 kts | 118° |
| 2026-05-06 18:15 | 48.06607 | 17.36423 | 28768 ft | 513 kts | 118° |
| 2026-05-06 18:15 | 48.03654 | 17.46107 | 28785 ft | 512 kts | 118° |
| 2026-05-06 18:16 | 48.00677 | 17.55755 | 28784 ft | 511 kts | 118° |
| 2026-05-06 18:16 | 47.97685 | 17.65389 | 28798 ft | 511 kts | 118° |
| 2026-05-06 18:17 | 47.94687 | 17.75007 | 28816 ft | 511 kts | 118° |
| 2026-05-06 18:17 | 47.91682 | 17.84617 | 28811 ft | 511 kts | 118° |
| 2026-05-06 18:18 | 47.88686 | 17.94163 | 28815 ft | 511 kts | 119° |
| 2026-05-06 18:18 | 47.85666 | 18.03751 | 28813 ft | 511 kts | 118° |
| 2026-05-06 18:19 | 47.82639 | 18.13326 | 28826 ft | 511 kts | 118° |
| 2026-05-06 18:19 | 47.79601 | 18.22895 | 28842 ft | 511 kts | 118° |
| 2026-05-06 18:20 | 47.76554 | 18.32458 | 28848 ft | 511 kts | 119° |
| 2026-05-06 18:20 | 47.73502 | 18.42003 | 28826 ft | 511 kts | 118° |
| 2026-05-06 18:21 | 47.70437 | 18.51550 | 28863 ft | 512 kts | 118° |
| 2026-05-06 18:21 | 47.67385 | 18.61020 | 28864 ft | 512 kts | 118° |
| 2026-05-06 18:22 | 47.64300 | 18.70559 | 28856 ft | 512 kts | 118° |
| 2026-05-06 18:22 | 47.61210 | 18.80077 | 28865 ft | 513 kts | 118° |
| 2026-05-06 18:23 | 47.58108 | 18.89597 | 28879 ft | 513 kts | 118° |
| 2026-05-06 18:23 | 47.54999 | 18.99103 | 28889 ft | 513 kts | 118° |
| 2026-05-06 18:24 | 47.51878 | 19.08609 | 28889 ft | 513 kts | 118° |
| 2026-05-06 18:24 | 47.48747 | 19.18110 | 28879 ft | 513 kts | 118° |
| 2026-05-06 18:25 | 47.45614 | 19.27586 | 28887 ft | 513 kts | 118° |
| 2026-05-06 18:25 | 47.42468 | 19.37064 | 28891 ft | 513 kts | 118° |
| 2026-05-06 18:26 | 47.39339 | 19.46457 | 28885 ft | 513 kts | 118° |
| 2026-05-06 18:26 | 47.36183 | 19.55896 | 28887 ft | 512 kts | 118° |
| 2026-05-06 18:27 | 47.33030 | 19.65291 | 28884 ft | 511 kts | 118° |
| 2026-05-06 18:27 | 47.29871 | 19.74669 | 28892 ft | 511 kts | 118° |
| 2026-05-06 18:28 | 47.26701 | 19.84047 | 28867 ft | 510 kts | 118° |
| 2026-05-06 18:28 | 47.23531 | 19.93392 | 28886 ft | 510 kts | 118° |
| 2026-05-06 18:29 | 47.20355 | 20.02720 | 28885 ft | 510 kts | 118° |
| 2026-05-06 18:29 | 47.17167 | 20.12049 | 28886 ft | 510 kts | 118° |
| 2026-05-06 18:30 | 47.13973 | 20.21362 | 28874 ft | 511 kts | 118° |
| 2026-05-06 18:30 | 47.10785 | 20.30629 | 28891 ft | 511 kts | 118° |
| 2026-05-06 18:31 | 47.07566 | 20.39949 | 28894 ft | 512 kts | 118° |
| 2026-05-06 18:31 | 47.04336 | 20.49269 | 28900 ft | 512 kts | 118° |
| 2026-05-06 18:32 | 47.01094 | 20.58588 | 28896 ft | 512 kts | 118° |
| 2026-05-06 18:32 | 46.97850 | 20.67884 | 28904 ft | 512 kts | 119° |
| 2026-05-06 18:33 | 46.94614 | 20.77121 | 28905 ft | 512 kts | 119° |
| 2026-05-06 18:33 | 46.91349 | 20.86410 | 28903 ft | 512 kts | 119° |
| 2026-05-06 18:34 | 46.88085 | 20.95664 | 28911 ft | 512 kts | 119° |
| 2026-05-06 18:34 | 46.84810 | 21.04915 | 28915 ft | 512 kts | 119° |
| 2026-05-06 18:35 | 46.81526 | 21.14161 | 28914 ft | 513 kts | 119° |
| 2026-05-06 18:35 | 46.78256 | 21.23336 | 28907 ft | 513 kts | 119° |
| 2026-05-06 18:36 | 46.74952 | 21.32575 | 28939 ft | 513 kts | 119° |
| 2026-05-06 18:36 | 46.71651 | 21.41776 | 28920 ft | 513 kts | 119° |
| 2026-05-06 18:37 | 46.68889 | 21.49450 | 28920 ft | 514 kts | 119° |
| 2026-05-06 18:37 | 46.64930 | 21.60155 | 28933 ft | 513 kts | 120° |
| 2026-05-06 18:38 | 46.61492 | 21.69266 | 28924 ft | 513 kts | 120° |
| 2026-05-06 18:38 | 46.58075 | 21.78319 | 28923 ft | 513 kts | 120° |
| 2026-05-06 18:39 | 46.54642 | 21.87415 | 28948 ft | 513 kts | 120° |
| 2026-05-06 18:40 | 46.49484 | 22.01040 | 28955 ft | 513 kts | 120° |
| 2026-05-06 18:40 | 46.46034 | 22.10114 | 28954 ft | 513 kts | 120° |
| 2026-05-06 18:41 | 46.42578 | 22.19171 | 28955 ft | 513 kts | 120° |
| 2026-05-06 18:41 | 46.39109 | 22.28231 | 28969 ft | 513 kts | 120° |
| 2026-05-06 18:42 | 46.35637 | 22.37269 | 28971 ft | 513 kts | 120° |
| 2026-05-06 18:42 | 46.32181 | 22.46237 | 28978 ft | 513 kts | 120° |
| 2026-05-06 18:43 | 46.28693 | 22.55259 | 28971 ft | 513 kts | 120° |
| 2026-05-06 18:43 | 46.25791 | 22.62742 | 28979 ft | 514 kts | 120° |
| 2026-05-06 18:44 | 46.22288 | 22.71746 | 28976 ft | 514 kts | 120° |
| 2026-05-06 18:44 | 46.18777 | 22.80740 | 28971 ft | 514 kts | 120° |
| 2026-05-06 18:45 | 46.14688 | 22.91183 | 28975 ft | 515 kts | 120° |
| 2026-05-06 18:45 | 46.11159 | 23.00161 | 28984 ft | 515 kts | 120° |
| 2026-05-06 18:46 | 46.08192 | 23.07686 | 28983 ft | 515 kts | 120° |
| 2026-05-06 18:46 | 46.04647 | 23.16650 | 28982 ft | 515 kts | 120° |
| 2026-05-06 18:47 | 46.01118 | 23.25546 | 28964 ft | 515 kts | 120° |
| 2026-05-06 18:47 | 45.97553 | 23.34500 | 28977 ft | 515 kts | 120° |
| 2026-05-06 18:48 | 45.93985 | 23.43439 | 28981 ft | 515 kts | 120° |
| 2026-05-06 18:48 | 45.90410 | 23.52362 | 29005 ft | 516 kts | 120° |
| 2026-05-06 18:49 | 45.86820 | 23.61295 | 28999 ft | 517 kts | 120° |
| 2026-05-06 18:49 | 45.83213 | 23.70242 | 28998 ft | 517 kts | 120° |
| 2026-05-06 18:50 | 45.79608 | 23.79155 | 28997 ft | 517 kts | 120° |
| 2026-05-06 18:50 | 45.75986 | 23.88079 | 28998 ft | 517 kts | 120° |
| 2026-05-06 18:51 | 45.72387 | 23.96922 | 28996 ft | 517 kts | 120° |
| 2026-05-06 18:51 | 45.68761 | 24.05803 | 29007 ft | 516 kts | 120° |
| 2026-05-06 18:52 | 45.65132 | 24.14668 | 29013 ft | 516 kts | 120° |
| 2026-05-06 18:52 | 45.61480 | 24.23494 | 29003 ft | 516 kts | 121° |
| 2026-05-06 18:53 | 45.57753 | 24.32288 | 29019 ft | 517 kts | 121° |
| 2026-05-06 18:53 | 45.54018 | 24.41052 | 29017 ft | 517 kts | 121° |
| 2026-05-06 18:54 | 45.50302 | 24.49776 | 29019 ft | 518 kts | 121° |
| 2026-05-06 18:54 | 45.46558 | 24.58553 | 29016 ft | 518 kts | 121° |
| 2026-05-06 18:55 | 45.42807 | 24.67324 | 29029 ft | 519 kts | 121° |
| 2026-05-06 18:55 | 45.39046 | 24.76086 | 29034 ft | 519 kts | 121° |
| 2026-05-06 18:56 | 45.35269 | 24.84858 | 29043 ft | 520 kts | 121° |
| 2026-05-06 18:56 | 45.31476 | 24.93639 | 29040 ft | 521 kts | 121° |
| 2026-05-06 18:57 | 45.27679 | 25.02404 | 29047 ft | 521 kts | 121° |
| 2026-05-06 18:57 | 45.23872 | 25.11163 | 29052 ft | 521 kts | 121° |
| 2026-05-06 18:58 | 45.20084 | 25.19851 | 29060 ft | 521 kts | 121° |
| 2026-05-06 18:58 | 45.16269 | 25.28577 | 29040 ft | 520 kts | 121° |
| 2026-05-06 18:59 | 45.12451 | 25.37278 | 29043 ft | 520 kts | 121° |
| 2026-05-06 18:59 | 45.08630 | 25.45964 | 29043 ft | 519 kts | 121° |
| 2026-05-06 19:00 | 45.04809 | 25.54623 | 29046 ft | 518 kts | 121° |
| 2026-05-06 19:00 | 45.00981 | 25.63270 | 29055 ft | 518 kts | 121° |
| 2026-05-06 19:01 | 44.97145 | 25.71907 | 29052 ft | 519 kts | 120° |
| 2026-05-06 19:01 | 44.93329 | 25.80477 | 29042 ft | 519 kts | 121° |
| 2026-05-06 19:02 | 44.89478 | 25.89098 | 29040 ft | 519 kts | 121° |
| 2026-05-06 19:02 | 44.85627 | 25.97692 | 29050 ft | 519 kts | 120° |
| 2026-05-06 19:03 | 44.81766 | 26.06284 | 29016 ft | 518 kts | 120° |
| 2026-05-06 19:03 | 44.77904 | 26.14852 | 29033 ft | 518 kts | 120° |
| 2026-05-06 19:04 | 44.74038 | 26.23403 | 29038 ft | 517 kts | 120° |
| 2026-05-06 19:04 | 44.70195 | 26.31879 | 29028 ft | 518 kts | 120° |
| 2026-05-06 19:05 | 44.66318 | 26.40406 | 29033 ft | 518 kts | 120° |
| 2026-05-06 19:05 | 44.62423 | 26.48949 | 29045 ft | 519 kts | 120° |
| 2026-05-06 19:06 | 44.58524 | 26.57489 | 29040 ft | 519 kts | 120° |
| 2026-05-06 19:06 | 44.54779 | 26.66137 | 29040 ft | 519 kts | 118° |
| 2026-05-06 19:07 | 44.51094 | 26.74859 | 29044 ft | 520 kts | 118° |
| 2026-05-06 19:07 | 44.47386 | 26.83566 | 29043 ft | 520 kts | 118° |
| 2026-05-06 19:08 | 44.43647 | 26.92254 | 29041 ft | 521 kts | 118° |
| 2026-05-06 19:08 | 44.39901 | 27.00910 | 29042 ft | 521 kts | 118° |
| 2026-05-06 19:09 | 44.36147 | 27.09560 | 29037 ft | 520 kts | 118° |
| 2026-05-06 19:09 | 44.32390 | 27.18195 | 29050 ft | 520 kts | 118° |
| 2026-05-06 19:10 | 44.28655 | 27.26755 | 29045 ft | 518 kts | 119° |
| 2026-05-06 19:10 | 44.24905 | 27.35326 | 29049 ft | 517 kts | 119° |
| 2026-05-06 19:11 | 44.21156 | 27.43869 | 29070 ft | 516 kts | 119° |
| 2026-05-06 19:11 | 44.17408 | 27.52382 | 29054 ft | 515 kts | 119° |
| 2026-05-06 19:12 | 44.13665 | 27.60862 | 29059 ft | 514 kts | 119° |
| 2026-05-06 19:12 | 44.09912 | 27.69337 | 29056 ft | 514 kts | 119° |
| 2026-05-06 19:13 | 44.06150 | 27.77807 | 29071 ft | 514 kts | 119° |
| 2026-05-06 19:13 | 44.02388 | 27.86255 | 29069 ft | 514 kts | 119° |
| 2026-05-06 19:14 | 43.98640 | 27.94646 | 29071 ft | 514 kts | 119° |
| 2026-05-06 19:14 | 43.94866 | 28.03072 | 29086 ft | 513 kts | 119° |
| 2026-05-06 19:15 | 43.91090 | 28.11476 | 29075 ft | 513 kts | 119° |
| 2026-05-06 19:15 | 43.87306 | 28.19873 | 29080 ft | 512 kts | 119° |
| 2026-05-06 19:16 | 43.83526 | 28.28238 | 29107 ft | 511 kts | 120° |
| 2026-05-06 19:16 | 43.79750 | 28.36571 | 29084 ft | 510 kts | 120° |
| 2026-05-06 19:17 | 43.75984 | 28.44863 | 29088 ft | 508 kts | 120° |
| 2026-05-06 19:17 | 43.72241 | 28.53070 | 29096 ft | 507 kts | 120° |
| 2026-05-06 19:18 | 43.68458 | 28.61283 | 29110 ft | 506 kts | 120° |
| 2026-05-06 19:18 | 43.64669 | 28.69475 | 29104 ft | 505 kts | 120° |
| 2026-05-06 19:19 | 43.60883 | 28.77648 | 29096 ft | 505 kts | 120° |
| 2026-05-06 19:19 | 43.57085 | 28.85832 | 29129 ft | 506 kts | 120° |
| 2026-05-06 19:20 | 43.53276 | 28.94019 | 29110 ft | 507 kts | 120° |
| 2026-05-06 19:20 | 43.49463 | 29.02190 | 29108 ft | 507 kts | 120° |
| 2026-05-06 19:21 | 43.45643 | 29.10350 | 29111 ft | 507 kts | 121° |
| 2026-05-06 19:21 | 43.41848 | 29.18435 | 29116 ft | 506 kts | 121° |
| 2026-05-06 19:22 | 43.38033 | 29.26542 | 29109 ft | 504 kts | 121° |
| 2026-05-06 19:22 | 43.34220 | 29.34621 | 29114 ft | 503 kts | 121° |
| 2026-05-06 19:23 | 43.30404 | 29.42685 | 29120 ft | 503 kts | 121° |
| 2026-05-06 19:23 | 43.26592 | 29.50721 | 29109 ft | 502 kts | 121° |
| 2026-05-06 19:24 | 43.22779 | 29.58733 | 29111 ft | 501 kts | 121° |
| 2026-05-06 19:24 | 43.18955 | 29.66749 | 29116 ft | 501 kts | 121° |
| 2026-05-06 19:25 | 43.15130 | 29.74746 | 29125 ft | 501 kts | 121° |
| 2026-05-06 19:25 | 43.11324 | 29.82681 | 29120 ft | 502 kts | 121° |
| 2026-05-06 19:26 | 43.07483 | 29.90667 | 29140 ft | 503 kts | 121° |
| 2026-05-06 19:26 | 43.03629 | 29.98657 | 29116 ft | 504 kts | 121° |
| 2026-05-06 19:27 | 42.99766 | 30.06647 | 29112 ft | 504 kts | 121° |
| 2026-05-06 19:27 | 42.95896 | 30.14628 | 29118 ft | 503 kts | 121° |
| 2026-05-06 19:28 | 42.92031 | 30.22578 | 29122 ft | 502 kts | 121° |
| 2026-05-06 19:28 | 42.88180 | 30.30477 | 29114 ft | 499 kts | 121° |
| 2026-05-06 19:29 | 42.84341 | 30.38332 | 29113 ft | 497 kts | 121° |
| 2026-05-06 19:29 | 42.80508 | 30.46158 | 29126 ft | 495 kts | 121° |
| 2026-05-06 19:30 | 42.76716 | 30.53903 | 29118 ft | 494 kts | 120° |
| 2026-05-06 19:30 | 42.73897 | 30.62314 | 29124 ft | 487 kts | 104° |
| 2026-05-06 19:31 | 42.72607 | 30.71312 | 29135 ft | 484 kts | 95° |
| 2026-05-06 19:31 | 42.71317 | 30.84969 | 29122 ft | 486 kts | 95° |
| 2026-05-06 19:32 | 42.70557 | 30.92543 | 29124 ft | 487 kts | 95° |
| 2026-05-06 19:32 | 42.69459 | 31.03196 | 29121 ft | 487 kts | 95° |
| 2026-05-06 19:33 | 42.68668 | 31.10782 | 29118 ft | 487 kts | 95° |
| 2026-05-06 19:33 | 42.67549 | 31.21446 | 29113 ft | 487 kts | 95° |
| 2026-05-06 19:34 | 42.66750 | 31.29007 | 29119 ft | 486 kts | 95° |
| 2026-05-06 19:34 | 42.65784 | 31.38097 | 29123 ft | 486 kts | 95° |
| 2026-05-06 19:35 | 42.64816 | 31.47129 | 29136 ft | 485 kts | 95° |
| 2026-05-06 19:35 | 42.63836 | 31.56205 | 29119 ft | 485 kts | 95° |
| 2026-05-06 19:36 | 42.62848 | 31.65275 | 29116 ft | 485 kts | 95° |
| 2026-05-06 19:36 | 42.61856 | 31.74326 | 29117 ft | 484 kts | 95° |
| 2026-05-06 19:37 | 42.60858 | 31.83363 | 29138 ft | 484 kts | 95° |
| 2026-05-06 19:37 | 42.59853 | 31.92404 | 29119 ft | 484 kts | 95° |
| 2026-05-06 19:38 | 42.58841 | 32.01436 | 29114 ft | 484 kts | 95° |
| 2026-05-06 19:38 | 42.57726 | 32.10449 | 29117 ft | 484 kts | 96° |
| 2026-05-06 19:39 | 42.56701 | 32.19406 | 29140 ft | 483 kts | 95° |
| 2026-05-06 19:39 | 42.55689 | 32.28426 | 29118 ft | 483 kts | 95° |
| 2026-05-06 19:40 | 42.54657 | 32.37436 | 29111 ft | 483 kts | 95° |
| 2026-05-06 19:40 | 42.53609 | 32.46437 | 29126 ft | 483 kts | 95° |
| 2026-05-06 19:41 | 42.52554 | 32.55421 | 29141 ft | 482 kts | 95° |
| 2026-05-06 19:41 | 42.51492 | 32.64407 | 29117 ft | 482 kts | 95° |
| 2026-05-06 19:42 | 42.50426 | 32.73366 | 29117 ft | 481 kts | 95° |
| 2026-05-06 19:42 | 42.49361 | 32.82259 | 29120 ft | 481 kts | 95° |
| 2026-05-06 19:43 | 42.48281 | 32.91211 | 29116 ft | 481 kts | 95° |
| 2026-05-06 19:43 | 42.47196 | 33.00154 | 29118 ft | 481 kts | 95° |
| 2026-05-06 19:44 | 42.46103 | 33.09105 | 29120 ft | 482 kts | 95° |
| 2026-05-06 19:44 | 42.45005 | 33.18061 | 29117 ft | 482 kts | 95° |
| 2026-05-06 19:45 | 42.43909 | 33.27026 | 29152 ft | 482 kts | 95° |
| 2026-05-06 19:45 | 42.42807 | 33.35994 | 29128 ft | 483 kts | 95° |
| 2026-05-06 19:46 | 42.41691 | 33.44976 | 29135 ft | 484 kts | 95° |
| 2026-05-06 19:46 | 42.40559 | 33.53887 | 29115 ft | 483 kts | 95° |
| 2026-05-06 19:47 | 42.39414 | 33.62842 | 29121 ft | 483 kts | 95° |
| 2026-05-06 19:47 | 42.38266 | 33.71791 | 29130 ft | 483 kts | 96° |
| 2026-05-06 19:48 | 42.37109 | 33.80754 | 29125 ft | 483 kts | 96° |
| 2026-05-06 19:48 | 42.35946 | 33.89718 | 29126 ft | 483 kts | 96° |
| 2026-05-06 19:49 | 42.34778 | 33.98670 | 29126 ft | 484 kts | 96° |
| 2026-05-06 19:49 | 42.33602 | 34.07650 | 29133 ft | 486 kts | 97° |
| 2026-05-06 19:50 | 42.32416 | 34.16658 | 29131 ft | 487 kts | 97° |
| 2026-05-06 19:50 | 42.31225 | 34.25636 | 29129 ft | 489 kts | 97° |
| 2026-05-06 19:51 | 42.30021 | 34.34672 | 29157 ft | 490 kts | 97° |
| 2026-05-06 19:51 | 42.28798 | 34.43750 | 29134 ft | 491 kts | 97° |
| 2026-05-06 19:52 | 42.27550 | 34.52825 | 29133 ft | 491 kts | 99° |
| 2026-05-06 19:52 | 42.26305 | 34.61859 | 29126 ft | 489 kts | 99° |
| 2026-05-06 19:53 | 42.25059 | 34.70861 | 29144 ft | 487 kts | 99° |
| 2026-05-06 19:53 | 42.23811 | 34.79818 | 29128 ft | 484 kts | 100° |
| 2026-05-06 19:54 | 42.22567 | 34.88723 | 29135 ft | 481 kts | 100° |
| 2026-05-06 19:54 | 42.21332 | 34.97541 | 29140 ft | 481 kts | 99° |
| 2026-05-06 19:55 | 42.20083 | 35.06416 | 29142 ft | 481 kts | 100° |
| 2026-05-06 19:55 | 42.18828 | 35.15273 | 29138 ft | 480 kts | 101° |
| 2026-05-06 19:56 | 42.17570 | 35.24105 | 29144 ft | 479 kts | 101° |
| 2026-05-06 19:56 | 42.16309 | 35.32904 | 29146 ft | 478 kts | 101° |
| 2026-05-06 19:57 | 42.15044 | 35.41691 | 29150 ft | 478 kts | 101° |
| 2026-05-06 19:57 | 42.13774 | 35.50469 | 29150 ft | 476 kts | 101° |
| 2026-05-06 19:58 | 42.12518 | 35.59130 | 29137 ft | 472 kts | 101° |
| 2026-05-06 19:58 | 42.11257 | 35.67786 | 29146 ft | 469 kts | 101° |
| 2026-05-06 19:59 | 42.09994 | 35.76405 | 29157 ft | 468 kts | 101° |
| 2026-05-06 19:59 | 42.08730 | 35.84980 | 29152 ft | 466 kts | 101° |
| 2026-05-06 20:00 | 42.07461 | 35.93544 | 29154 ft | 466 kts | 101° |
| 2026-05-06 20:00 | 42.06188 | 36.02089 | 29156 ft | 466 kts | 101° |
| 2026-05-06 20:01 | 42.04914 | 36.10597 | 29160 ft | 467 kts | 101° |
| 2026-05-06 20:01 | 42.03625 | 36.19159 | 29154 ft | 467 kts | 101° |
| 2026-05-06 20:02 | 42.02328 | 36.27724 | 29156 ft | 467 kts | 101° |
| 2026-05-06 20:02 | 42.01025 | 36.36288 | 29155 ft | 467 kts | 101° |
| 2026-05-06 20:03 | 41.99716 | 36.44842 | 29155 ft | 467 kts | 101° |
| 2026-05-06 20:03 | 41.98403 | 36.53379 | 29156 ft | 466 kts | 101° |
| 2026-05-06 20:04 | 41.97083 | 36.61917 | 29156 ft | 466 kts | 101° |
| 2026-05-06 20:04 | 41.95761 | 36.70428 | 29155 ft | 466 kts | 101° |
| 2026-05-06 20:05 | 41.94439 | 36.78892 | 29154 ft | 465 kts | 101° |
| 2026-05-06 20:05 | 41.93103 | 36.87400 | 29156 ft | 466 kts | 101° |
| 2026-05-06 20:06 | 41.91763 | 36.95904 | 29158 ft | 466 kts | 101° |
| 2026-05-06 20:06 | 41.90318 | 37.04375 | 29134 ft | 466 kts | 105° |
| 2026-05-06 20:07 | 41.87951 | 37.12503 | 29165 ft | 468 kts | 111° |
| 2026-05-06 20:07 | 41.85376 | 37.20536 | 29143 ft | 469 kts | 111° |
| 2026-05-06 20:08 | 41.82833 | 37.28580 | 29147 ft | 469 kts | 111° |
| 2026-05-06 20:08 | 41.80289 | 37.36647 | 29165 ft | 470 kts | 111° |
| 2026-05-06 20:09 | 41.77739 | 37.44707 | 29154 ft | 470 kts | 111° |
| 2026-05-06 20:09 | 41.75179 | 37.52769 | 29150 ft | 470 kts | 111° |
| 2026-05-06 20:10 | 41.72611 | 37.60837 | 29158 ft | 471 kts | 111° |
| 2026-05-06 20:10 | 41.70049 | 37.68856 | 29152 ft | 471 kts | 111° |
| 2026-05-06 20:11 | 41.67459 | 37.76911 | 29164 ft | 471 kts | 111° |
| 2026-05-06 20:11 | 41.64865 | 37.84956 | 29156 ft | 471 kts | 111° |
| 2026-05-06 20:12 | 41.62259 | 37.93020 | 29154 ft | 472 kts | 111° |
| 2026-05-06 20:12 | 41.59653 | 38.01061 | 29178 ft | 472 kts | 111° |
| 2026-05-06 20:13 | 41.57059 | 38.09043 | 29165 ft | 472 kts | 111° |
| 2026-05-06 20:13 | 41.54441 | 38.17075 | 29158 ft | 471 kts | 111° |
| 2026-05-06 20:14 | 41.51818 | 38.25096 | 29161 ft | 471 kts | 111° |
| 2026-05-06 20:14 | 41.49192 | 38.33106 | 29168 ft | 471 kts | 111° |
| 2026-05-06 20:15 | 41.46560 | 38.41112 | 29163 ft | 471 kts | 111° |
| 2026-05-06 20:15 | 41.43922 | 38.49112 | 29163 ft | 472 kts | 112° |
| 2026-05-06 20:16 | 41.41288 | 38.57076 | 29178 ft | 473 kts | 112° |
| 2026-05-06 20:16 | 41.38622 | 38.65113 | 29168 ft | 475 kts | 112° |
| 2026-05-06 20:17 | 41.35947 | 38.73159 | 29164 ft | 476 kts | 112° |
| 2026-05-06 20:17 | 41.33258 | 38.81232 | 29165 ft | 477 kts | 112° |
| 2026-05-06 20:18 | 41.30600 | 38.89344 | 29154 ft | 479 kts | 113° |
| 2026-05-06 20:18 | 41.27941 | 38.97470 | 29160 ft | 480 kts | 113° |
| 2026-05-06 20:19 | 41.25258 | 39.05623 | 29358 ft | 483 kts | 113° |
| 2026-05-06 20:19 | 41.23912 | 39.09705 | 29799 ft | 481 kts | 113° |
| 2026-05-06 20:19 | 41.22571 | 39.13763 | 30305 ft | 478 kts | 114° |
| 2026-05-06 20:20 | 41.21233 | 39.17800 | 30590 ft | 478 kts | 114° |
| 2026-05-06 20:20 | 41.19855 | 39.21836 | 30839 ft | 480 kts | 115° |
| 2026-05-06 20:20 | 41.18451 | 39.25854 | 31042 ft | 481 kts | 115° |
| 2026-05-06 20:20 | 41.17048 | 39.29832 | 31103 ft | 483 kts | 115° |
| 2026-05-06 20:21 | 41.14204 | 39.37906 | 31158 ft | 482 kts | 115° |
| 2026-05-06 20:21 | 41.11382 | 39.45944 | 31186 ft | 480 kts | 115° |
| 2026-05-06 20:22 | 41.08563 | 39.53966 | 31174 ft | 479 kts | 115° |
| 2026-05-06 20:22 | 41.05744 | 39.61966 | 31176 ft | 479 kts | 115° |
| 2026-05-06 20:23 | 41.03400 | 39.68599 | 31174 ft | 479 kts | 115° |
| 2026-05-06 20:23 | 41.00365 | 39.78111 | 31172 ft | 482 kts | 106° |
| 2026-05-06 20:24 | 40.99301 | 39.85346 | 31194 ft | 484 kts | 95° |
| 2026-05-06 20:24 | 40.99065 | 39.95715 | 31177 ft | 486 kts | 91° |
| 2026-05-06 20:25 | 40.98898 | 40.04687 | 31164 ft | 488 kts | 92° |
| 2026-05-06 20:25 | 40.98714 | 40.12176 | 31184 ft | 490 kts | 92° |
| 2026-05-06 20:26 | 40.98479 | 40.21193 | 31175 ft | 491 kts | 93° |
| 2026-05-06 20:26 | 40.98237 | 40.30239 | 31165 ft | 493 kts | 93° |
| 2026-05-06 20:27 | 40.97988 | 40.39323 | 31164 ft | 493 kts | 93° |
| 2026-05-06 20:27 | 40.97730 | 40.48391 | 31156 ft | 493 kts | 94° |
| 2026-05-06 20:28 | 40.97468 | 40.57465 | 31180 ft | 493 kts | 94° |
| 2026-05-06 20:28 | 40.97200 | 40.66487 | 31172 ft | 494 kts | 94° |
| 2026-05-06 20:29 | 40.96923 | 40.75566 | 31173 ft | 494 kts | 94° |
| 2026-05-06 20:29 | 40.96639 | 40.84656 | 31185 ft | 494 kts | 94° |
| 2026-05-06 20:30 | 40.96193 | 40.98287 | 31186 ft | 494 kts | 94° |
| 2026-05-06 20:31 | 40.95884 | 41.07399 | 31175 ft | 496 kts | 94° |
| 2026-05-06 20:31 | 40.95569 | 41.16515 | 31166 ft | 497 kts | 95° |
| 2026-05-06 20:32 | 40.95243 | 41.25657 | 31168 ft | 498 kts | 95° |
| 2026-05-06 20:32 | 40.94915 | 41.34824 | 31159 ft | 498 kts | 95° |
| 2026-05-06 20:33 | 40.94575 | 41.43974 | 31171 ft | 499 kts | 95° |
| 2026-05-06 20:33 | 40.94228 | 41.53113 | 31181 ft | 501 kts | 95° |
| 2026-05-06 20:34 | 40.93875 | 41.62336 | 31173 ft | 503 kts | 96° |
| 2026-05-06 20:34 | 40.93512 | 41.71595 | 31165 ft | 504 kts | 96° |
| 2026-05-06 20:35 | 40.93139 | 41.80868 | 31169 ft | 505 kts | 96° |
| 2026-05-06 20:35 | 40.92757 | 41.90154 | 31169 ft | 505 kts | 96° |
| 2026-05-06 20:36 | 40.92370 | 41.99440 | 31180 ft | 505 kts | 96° |
| 2026-05-06 20:36 | 40.91980 | 42.08659 | 31180 ft | 505 kts | 96° |
| 2026-05-06 20:37 | 40.91575 | 42.17994 | 31151 ft | 505 kts | 97° |
| 2026-05-06 20:37 | 40.91166 | 42.27217 | 31165 ft | 506 kts | 97° |
| 2026-05-06 20:38 | 40.90748 | 42.36512 | 31161 ft | 507 kts | 97° |
| 2026-05-06 20:38 | 40.90321 | 42.45816 | 31162 ft | 507 kts | 97° |
| 2026-05-06 20:39 | 40.89887 | 42.55130 | 31142 ft | 508 kts | 97° |
| 2026-05-06 20:39 | 40.89445 | 42.64459 | 31150 ft | 509 kts | 97° |
| 2026-05-06 20:40 | 40.88994 | 42.73804 | 31151 ft | 510 kts | 97° |
| 2026-05-06 20:40 | 40.88538 | 42.83118 | 31145 ft | 511 kts | 97° |
| 2026-05-06 20:41 | 40.88070 | 42.92495 | 31123 ft | 512 kts | 97° |
| 2026-05-06 20:41 | 40.87594 | 43.01887 | 31135 ft | 512 kts | 97° |
| 2026-05-06 20:42 | 40.87110 | 43.11281 | 31138 ft | 513 kts | 97° |
| 2026-05-06 20:42 | 40.86618 | 43.20705 | 31132 ft | 513 kts | 97° |
| 2026-05-06 20:43 | 40.86118 | 43.30112 | 31130 ft | 513 kts | 97° |
| 2026-05-06 20:43 | 40.85611 | 43.39515 | 31134 ft | 513 kts | 97° |
| 2026-05-06 20:44 | 40.85100 | 43.48843 | 31121 ft | 512 kts | 97° |
| 2026-05-06 20:44 | 40.84578 | 43.58235 | 31126 ft | 511 kts | 97° |
| 2026-05-06 20:45 | 40.84052 | 43.67600 | 31132 ft | 511 kts | 97° |
| 2026-05-06 20:45 | 40.83678 | 43.76990 | 31115 ft | 512 kts | 95° |
| 2026-05-06 20:46 | 40.83400 | 43.86375 | 31130 ft | 512 kts | 96° |
| 2026-05-06 20:46 | 40.83088 | 43.95786 | 31128 ft | 513 kts | 96° |
| 2026-05-06 20:47 | 40.82769 | 44.05143 | 31124 ft | 513 kts | 96° |
| 2026-05-06 20:47 | 40.82443 | 44.14558 | 31116 ft | 513 kts | 96° |
| 2026-05-06 20:48 | 40.82110 | 44.23976 | 31125 ft | 513 kts | 96° |
| 2026-05-06 20:48 | 40.81768 | 44.33398 | 31122 ft | 514 kts | 96° |
| 2026-05-06 20:49 | 40.81421 | 44.42824 | 31104 ft | 514 kts | 96° |
| 2026-05-06 20:49 | 40.81064 | 44.52231 | 31117 ft | 513 kts | 96° |
| 2026-05-06 20:50 | 40.80703 | 44.61649 | 31091 ft | 514 kts | 96° |
| 2026-05-06 20:50 | 40.80327 | 44.71078 | 31097 ft | 514 kts | 96° |
| 2026-05-06 20:51 | 40.79947 | 44.80447 | 31104 ft | 514 kts | 96° |
| 2026-05-06 20:51 | 40.79560 | 44.89887 | 31103 ft | 515 kts | 96° |
| 2026-05-06 20:52 | 40.79164 | 44.99342 | 31101 ft | 515 kts | 96° |
| 2026-05-06 20:52 | 40.78763 | 45.08776 | 31101 ft | 515 kts | 96° |
| 2026-05-06 20:53 | 40.78350 | 45.18221 | 31107 ft | 515 kts | 97° |
| 2026-05-06 20:53 | 40.77932 | 45.27609 | 31112 ft | 516 kts | 97° |
| 2026-05-06 20:54 | 40.77504 | 45.37114 | 31112 ft | 516 kts | 97° |
| 2026-05-06 20:54 | 40.77078 | 45.46505 | 31109 ft | 516 kts | 96° |
| 2026-05-06 20:55 | 40.77371 | 45.55999 | 31104 ft | 521 kts | 85° |
| 2026-05-06 20:55 | 40.78425 | 45.65476 | 31098 ft | 522 kts | 84° |
| 2026-05-06 20:56 | 40.79453 | 45.74974 | 31099 ft | 523 kts | 85° |
| 2026-05-06 20:56 | 40.80432 | 45.84497 | 31091 ft | 523 kts | 85° |
| 2026-05-06 20:57 | 40.81382 | 45.93957 | 31085 ft | 523 kts | 85° |
| 2026-05-06 20:57 | 40.82335 | 46.03513 | 31095 ft | 523 kts | 85° |
| 2026-05-06 20:58 | 40.83281 | 46.13053 | 31079 ft | 524 kts | 86° |
| 2026-05-06 20:58 | 40.84221 | 46.22602 | 31081 ft | 525 kts | 86° |
| 2026-05-06 20:59 | 40.85154 | 46.32171 | 31076 ft | 526 kts | 86° |
| 2026-05-06 20:59 | 40.86083 | 46.41785 | 31087 ft | 527 kts | 86° |
| 2026-05-06 21:00 | 40.87005 | 46.51403 | 31088 ft | 528 kts | 86° |
| 2026-05-06 21:00 | 40.87914 | 46.60974 | 31084 ft | 529 kts | 86° |
| 2026-05-06 21:01 | 40.88822 | 46.70612 | 31071 ft | 530 kts | 86° |
| 2026-05-06 21:01 | 40.89658 | 46.80295 | 31081 ft | 529 kts | 90° |
| 2026-05-06 21:02 | 40.89463 | 46.89939 | 31108 ft | 522 kts | 101° |
| 2026-05-06 21:02 | 40.88684 | 46.99509 | 31103 ft | 524 kts | 101° |
| 2026-05-06 21:03 | 40.87947 | 47.09095 | 31089 ft | 525 kts | 101° |
| 2026-05-06 21:03 | 40.87238 | 47.18724 | 31094 ft | 526 kts | 101° |
| 2026-05-06 21:04 | 40.86526 | 47.28349 | 31090 ft | 527 kts | 101° |
| 2026-05-06 21:04 | 40.85804 | 47.37940 | 31088 ft | 528 kts | 101° |
| 2026-05-06 21:05 | 40.85068 | 47.47609 | 31086 ft | 529 kts | 101° |
| 2026-05-06 21:05 | 40.84370 | 47.57290 | 31051 ft | 530 kts | 100° |
| 2026-05-06 21:06 | 40.83788 | 47.66994 | 31066 ft | 530 kts | 100° |
| 2026-05-06 21:06 | 40.83213 | 47.76658 | 31078 ft | 530 kts | 100° |
| 2026-05-06 21:07 | 40.82612 | 47.86349 | 31083 ft | 530 kts | 100° |
| 2026-05-06 21:07 | 40.81988 | 47.96059 | 31073 ft | 531 kts | 101° |
| 2026-05-06 21:08 | 40.81356 | 48.05768 | 31082 ft | 530 kts | 101° |
| 2026-05-06 21:08 | 40.80716 | 48.15478 | 31078 ft | 530 kts | 100° |
| 2026-05-06 21:09 | 40.80069 | 48.25175 | 31075 ft | 530 kts | 100° |
| 2026-05-06 21:09 | 40.79423 | 48.34797 | 31068 ft | 530 kts | 100° |
| 2026-05-06 21:10 | 40.78759 | 48.44479 | 31068 ft | 530 kts | 101° |
| 2026-05-06 21:10 | 40.78088 | 48.54172 | 31071 ft | 531 kts | 101° |
| 2026-05-06 21:11 | 40.77409 | 48.63864 | 31064 ft | 531 kts | 101° |
| 2026-05-06 21:11 | 40.76721 | 48.73580 | 31076 ft | 531 kts | 101° |
| 2026-05-06 21:12 | 40.76025 | 48.83289 | 31052 ft | 532 kts | 101° |
| 2026-05-06 21:12 | 40.75319 | 48.93002 | 31059 ft | 532 kts | 101° |
| 2026-05-06 21:13 | 40.74610 | 49.02654 | 31069 ft | 533 kts | 101° |
| 2026-05-06 21:13 | 40.73889 | 49.12373 | 31060 ft | 533 kts | 101° |
| 2026-05-06 21:14 | 40.73284 | 49.20469 | 31060 ft | 533 kts | 101° |
| 2026-05-06 21:14 | 40.72434 | 49.30158 | 31046 ft | 530 kts | 105° |
| 2026-05-06 21:15 | 40.71220 | 49.39728 | 31045 ft | 529 kts | 106° |
| 2026-05-06 21:15 | 40.70052 | 49.49310 | 31048 ft | 530 kts | 105° |
| 2026-05-06 21:16 | 40.68916 | 49.58910 | 31057 ft | 531 kts | 105° |
| 2026-05-06 21:16 | 40.67746 | 49.68524 | 31041 ft | 531 kts | 105° |
| 2026-05-06 21:17 | 40.66566 | 49.78136 | 31055 ft | 532 kts | 105° |
| 2026-05-06 21:17 | 40.65381 | 49.87748 | 31062 ft | 533 kts | 105° |
| 2026-05-06 21:18 | 40.64187 | 49.97387 | 31068 ft | 533 kts | 105° |
| 2026-05-06 21:18 | 40.62983 | 50.07034 | 31039 ft | 534 kts | 105° |
| 2026-05-06 21:19 | 40.61780 | 50.16612 | 31061 ft | 534 kts | 105° |
| 2026-05-06 21:19 | 40.60558 | 50.26259 | 31059 ft | 535 kts | 105° |
| 2026-05-06 21:20 | 40.59328 | 50.35912 | 31060 ft | 535 kts | 106° |
| 2026-05-06 21:20 | 40.58088 | 50.45574 | 31030 ft | 536 kts | 106° |
| 2026-05-06 21:21 | 40.56838 | 50.55250 | 31046 ft | 536 kts | 106° |
| 2026-05-06 21:21 | 40.55581 | 50.64913 | 31051 ft | 537 kts | 106° |
| 2026-05-06 21:22 | 40.54320 | 50.74538 | 31048 ft | 537 kts | 106° |
| 2026-05-06 21:22 | 40.53045 | 50.84221 | 31016 ft | 538 kts | 107° |
| 2026-05-06 21:23 | 40.51800 | 50.93910 | 31051 ft | 540 kts | 104° |
| 2026-05-06 21:23 | 40.50897 | 51.03746 | 31058 ft | 542 kts | 103° |
| 2026-05-06 21:24 | 40.50052 | 51.13587 | 31054 ft | 542 kts | 103° |
| 2026-05-06 21:24 | 40.49168 | 51.23421 | 31050 ft | 542 kts | 103° |
| 2026-05-06 21:25 | 40.48263 | 51.33192 | 31046 ft | 541 kts | 103° |
| 2026-05-06 21:25 | 40.47342 | 51.43068 | 31051 ft | 542 kts | 103° |
| 2026-05-06 21:26 | 40.46274 | 51.52765 | 31043 ft | 536 kts | 110° |
| 2026-05-06 21:26 | 40.44512 | 51.62248 | 31047 ft | 534 kts | 111° |
| 2026-05-06 21:27 | 40.42711 | 51.71700 | 31041 ft | 534 kts | 111° |
| 2026-05-06 21:27 | 40.40940 | 51.81177 | 31034 ft | 535 kts | 111° |
| 2026-05-06 21:28 | 40.39181 | 51.90665 | 31044 ft | 535 kts | 111° |
| 2026-05-06 21:28 | 40.37416 | 52.00146 | 31041 ft | 535 kts | 111° |
| 2026-05-06 21:29 | 40.35641 | 52.09620 | 31038 ft | 535 kts | 111° |
| 2026-05-06 21:29 | 40.33855 | 52.19095 | 31042 ft | 535 kts | 111° |
| 2026-05-06 21:30 | 40.32064 | 52.28555 | 31040 ft | 534 kts | 111° |
| 2026-05-06 21:30 | 40.30267 | 52.37997 | 31023 ft | 534 kts | 111° |
| 2026-05-06 21:31 | 40.28477 | 52.47363 | 31040 ft | 533 kts | 111° |
| 2026-05-06 21:31 | 40.26670 | 52.56778 | 31044 ft | 533 kts | 111° |
| 2026-05-06 21:32 | 40.24862 | 52.66176 | 31044 ft | 533 kts | 111° |
| 2026-05-06 21:32 | 40.22147 | 52.80274 | 31040 ft | 532 kts | 111° |
| 2026-05-06 21:33 | 40.20331 | 52.89649 | 31048 ft | 532 kts | 111° |
| 2026-05-06 21:33 | 40.18506 | 52.99021 | 31059 ft | 532 kts | 111° |
| 2026-05-06 21:34 | 40.16673 | 53.08390 | 31031 ft | 532 kts | 111° |
| 2026-05-06 21:34 | 40.14831 | 53.17760 | 31046 ft | 532 kts | 111° |
| 2026-05-06 21:35 | 40.12983 | 53.27123 | 31051 ft | 532 kts | 111° |
| 2026-05-06 21:35 | 40.11139 | 53.36420 | 31037 ft | 532 kts | 111° |
| 2026-05-06 21:36 | 40.09277 | 53.45768 | 31020 ft | 532 kts | 111° |
| 2026-05-06 21:36 | 40.07407 | 53.55107 | 31017 ft | 531 kts | 111° |
| 2026-05-06 21:37 | 40.05531 | 53.64435 | 31020 ft | 531 kts | 111° |
| 2026-05-06 21:37 | 40.03646 | 53.73767 | 31028 ft | 532 kts | 111° |
| 2026-05-06 21:38 | 40.01752 | 53.83101 | 31023 ft | 532 kts | 111° |
| 2026-05-06 21:38 | 39.99852 | 53.92426 | 31005 ft | 531 kts | 111° |
| 2026-05-06 21:39 | 39.97953 | 54.01699 | 30999 ft | 531 kts | 112° |
| 2026-05-06 21:39 | 39.96040 | 54.11002 | 30976 ft | 531 kts | 111° |
| 2026-05-06 21:40 | 39.94121 | 54.20295 | 30996 ft | 530 kts | 111° |
| 2026-05-06 21:40 | 39.92196 | 54.29575 | 30999 ft | 531 kts | 112° |
| 2026-05-06 21:41 | 39.90262 | 54.38861 | 31002 ft | 531 kts | 112° |
| 2026-05-06 21:41 | 39.88320 | 54.48127 | 30983 ft | 530 kts | 112° |
| 2026-05-06 21:42 | 39.86345 | 54.57371 | 30995 ft | 530 kts | 112° |
| 2026-05-06 21:42 | 39.84361 | 54.66608 | 30996 ft | 530 kts | 112° |
| 2026-05-06 21:43 | 39.82386 | 54.75798 | 30997 ft | 530 kts | 112° |
| 2026-05-06 21:43 | 39.80407 | 54.85049 | 30989 ft | 531 kts | 112° |
| 2026-05-06 21:44 | 39.78436 | 54.94305 | 30993 ft | 531 kts | 112° |
| 2026-05-06 21:44 | 39.76454 | 55.03561 | 30988 ft | 531 kts | 112° |
| 2026-05-06 21:45 | 39.74463 | 55.12813 | 30983 ft | 532 kts | 112° |
| 2026-05-06 21:45 | 39.72463 | 55.22061 | 30975 ft | 531 kts | 112° |
| 2026-05-06 21:46 | 39.70470 | 55.31244 | 30980 ft | 531 kts | 112° |
| 2026-05-06 21:46 | 39.68457 | 55.40462 | 30978 ft | 531 kts | 112° |
| 2026-05-06 21:47 | 39.66422 | 55.49675 | 30974 ft | 531 kts | 112° |
| 2026-05-06 21:47 | 39.64381 | 55.58884 | 30976 ft | 531 kts | 112° |
| 2026-05-06 21:48 | 39.62335 | 55.68086 | 30976 ft | 531 kts | 112° |
| 2026-05-06 21:48 | 39.60283 | 55.77283 | 30973 ft | 531 kts | 112° |
| 2026-05-06 21:49 | 39.58224 | 55.86478 | 30967 ft | 531 kts | 112° |
| 2026-05-06 21:49 | 39.56171 | 55.95622 | 30964 ft | 532 kts | 112° |
| 2026-05-06 21:50 | 39.54105 | 56.04845 | 30968 ft | 533 kts | 112° |
| 2026-05-06 21:50 | 39.52030 | 56.14081 | 30968 ft | 534 kts | 112° |
| 2026-05-06 21:51 | 39.49944 | 56.23325 | 30959 ft | 535 kts | 112° |
| 2026-05-06 21:51 | 39.47850 | 56.32561 | 30944 ft | 535 kts | 112° |
| 2026-05-06 21:52 | 39.45749 | 56.41793 | 30957 ft | 535 kts | 112° |
| 2026-05-06 21:52 | 39.43636 | 56.51035 | 30951 ft | 535 kts | 112° |
| 2026-05-06 21:53 | 39.41517 | 56.60273 | 30931 ft | 534 kts | 112° |
| 2026-05-06 21:53 | 39.39400 | 56.69462 | 30944 ft | 533 kts | 112° |
| 2026-05-06 21:54 | 39.37291 | 56.78582 | 30943 ft | 532 kts | 112° |
| 2026-05-06 21:54 | 39.35088 | 56.87693 | 30926 ft | 530 kts | 114° |
| 2026-05-06 21:55 | 39.32750 | 56.96705 | 30932 ft | 528 kts | 114° |
| 2026-05-06 21:55 | 39.30402 | 57.05697 | 30927 ft | 528 kts | 114° |
| 2026-05-06 21:56 | 39.28067 | 57.14707 | 30926 ft | 528 kts | 114° |
| 2026-05-06 21:56 | 39.25754 | 57.23655 | 30919 ft | 527 kts | 113° |
| 2026-05-06 21:57 | 39.23429 | 57.32619 | 30914 ft | 527 kts | 113° |
| 2026-05-06 21:57 | 39.21096 | 57.41573 | 30910 ft | 526 kts | 113° |
| 2026-05-06 21:58 | 39.18757 | 57.50513 | 30882 ft | 526 kts | 113° |
| 2026-05-06 21:58 | 39.16414 | 57.59438 | 30902 ft | 525 kts | 113° |
| 2026-05-06 21:59 | 39.14070 | 57.68337 | 30911 ft | 524 kts | 113° |
| 2026-05-06 21:59 | 39.11718 | 57.77230 | 30892 ft | 524 kts | 113° |
| 2026-05-06 22:00 | 39.09362 | 57.86113 | 30887 ft | 524 kts | 113° |
| 2026-05-06 22:00 | 39.07001 | 57.94980 | 30900 ft | 524 kts | 113° |
| 2026-05-06 22:01 | 39.04626 | 58.03865 | 30900 ft | 526 kts | 113° |
| 2026-05-06 22:01 | 39.02643 | 58.11263 | 30898 ft | 527 kts | 113° |
| 2026-05-06 22:02 | 38.99860 | 58.21612 | 30881 ft | 528 kts | 113° |
| 2026-05-06 22:02 | 38.97449 | 58.30543 | 30889 ft | 528 kts | 113° |
| 2026-05-06 22:03 | 38.95440 | 58.37961 | 30896 ft | 529 kts | 113° |
| 2026-05-06 22:03 | 38.93010 | 58.46904 | 30895 ft | 530 kts | 113° |
| 2026-05-06 22:04 | 38.90577 | 58.55837 | 30885 ft | 529 kts | 113° |
| 2026-05-06 22:04 | 38.88017 | 58.64670 | 30888 ft | 525 kts | 119° |
| 2026-05-06 22:05 | 38.84743 | 58.73011 | 30889 ft | 523 kts | 121° |
| 2026-05-06 22:05 | 38.81416 | 58.81313 | 30886 ft | 523 kts | 121° |
| 2026-05-06 22:06 | 38.78128 | 58.89625 | 30885 ft | 523 kts | 121° |
| 2026-05-06 22:06 | 38.74856 | 58.97933 | 30887 ft | 523 kts | 121° |
| 2026-05-06 22:07 | 38.71586 | 59.06213 | 30882 ft | 523 kts | 121° |
| 2026-05-06 22:07 | 38.68298 | 59.14508 | 30867 ft | 522 kts | 121° |
| 2026-05-06 22:08 | 38.65005 | 59.22794 | 30873 ft | 522 kts | 121° |
| 2026-05-06 22:08 | 38.61713 | 59.31058 | 30866 ft | 522 kts | 121° |
| 2026-05-06 22:09 | 38.58423 | 59.39349 | 30857 ft | 522 kts | 120° |
| 2026-05-06 22:09 | 38.55296 | 59.47735 | 30854 ft | 523 kts | 118° |
| 2026-05-06 22:10 | 38.52222 | 59.56148 | 30858 ft | 523 kts | 118° |
| 2026-05-06 22:10 | 38.49119 | 59.64554 | 30845 ft | 524 kts | 119° |
| 2026-05-06 22:11 | 38.46001 | 59.72915 | 30827 ft | 524 kts | 119° |
| 2026-05-06 22:11 | 38.42856 | 59.81306 | 30844 ft | 524 kts | 119° |
| 2026-05-06 22:12 | 38.39702 | 59.89699 | 30835 ft | 525 kts | 119° |
| 2026-05-06 22:12 | 38.36538 | 59.98099 | 30831 ft | 525 kts | 119° |
| 2026-05-06 22:13 | 38.33369 | 60.06496 | 30808 ft | 525 kts | 119° |
| 2026-05-06 22:13 | 38.30197 | 60.14873 | 30819 ft | 524 kts | 119° |
| 2026-05-06 22:14 | 38.27045 | 60.23175 | 30815 ft | 523 kts | 119° |
| 2026-05-06 22:14 | 38.23871 | 60.31512 | 30808 ft | 523 kts | 119° |
| 2026-05-06 22:15 | 38.20698 | 60.39825 | 30802 ft | 522 kts | 119° |
| 2026-05-06 22:15 | 38.17518 | 60.48131 | 30797 ft | 522 kts | 119° |
| 2026-05-06 22:16 | 38.14334 | 60.56427 | 30809 ft | 522 kts | 119° |
| 2026-05-06 22:16 | 38.11141 | 60.64724 | 30786 ft | 522 kts | 119° |
| 2026-05-06 22:17 | 38.07944 | 60.73009 | 30795 ft | 523 kts | 119° |
| 2026-05-06 22:17 | 38.04760 | 60.81237 | 30798 ft | 523 kts | 119° |
| 2026-05-06 22:18 | 38.01547 | 60.89519 | 30788 ft | 523 kts | 119° |
| 2026-05-06 22:18 | 37.98328 | 60.97795 | 30778 ft | 523 kts | 119° |
| 2026-05-06 22:19 | 37.95101 | 61.06066 | 30768 ft | 523 kts | 118° |
| 2026-05-06 22:19 | 37.91890 | 61.14278 | 30778 ft | 523 kts | 118° |
| 2026-05-06 22:20 | 37.88657 | 61.22524 | 30776 ft | 523 kts | 118° |
| 2026-05-06 22:20 | 37.85419 | 61.30761 | 30769 ft | 523 kts | 118° |
| 2026-05-06 22:21 | 37.82180 | 61.38976 | 30768 ft | 523 kts | 118° |
| 2026-05-06 22:21 | 37.78928 | 61.47205 | 30777 ft | 523 kts | 118° |
| 2026-05-06 22:22 | 37.75674 | 61.55416 | 30775 ft | 523 kts | 118° |
| 2026-05-06 22:22 | 37.72413 | 61.63623 | 30770 ft | 522 kts | 118° |
| 2026-05-06 22:23 | 37.69149 | 61.71820 | 30772 ft | 522 kts | 119° |
| 2026-05-06 22:23 | 37.65883 | 61.80001 | 30772 ft | 522 kts | 119° |
| 2026-05-06 22:24 | 37.62580 | 61.88150 | 30801 ft | 521 kts | 121° |
| 2026-05-06 22:24 | 37.58527 | 61.95687 | 30799 ft | 517 kts | 129° |
| 2026-05-06 22:25 | 37.54217 | 62.02879 | 30794 ft | 517 kts | 129° |
| 2026-05-06 22:25 | 37.49904 | 62.10130 | 30792 ft | 517 kts | 129° |
| 2026-05-06 22:26 | 37.45610 | 62.17402 | 30782 ft | 517 kts | 129° |
| 2026-05-06 22:26 | 37.41315 | 62.24681 | 30788 ft | 517 kts | 129° |
| 2026-05-06 22:27 | 37.37025 | 62.31937 | 30789 ft | 517 kts | 129° |
| 2026-05-06 22:27 | 37.32730 | 62.39177 | 30790 ft | 517 kts | 129° |
| 2026-05-06 22:28 | 37.28431 | 62.46409 | 30783 ft | 516 kts | 129° |
| 2026-05-06 22:28 | 37.24156 | 62.53583 | 30800 ft | 516 kts | 129° |
| 2026-05-06 22:29 | 37.19853 | 62.60789 | 30791 ft | 516 kts | 129° |
| 2026-05-06 22:29 | 37.15542 | 62.67994 | 30790 ft | 516 kts | 129° |
| 2026-05-06 22:30 | 37.11225 | 62.75192 | 30792 ft | 516 kts | 129° |
| 2026-05-06 22:30 | 37.06905 | 62.82381 | 30795 ft | 517 kts | 129° |
| 2026-05-06 22:31 | 37.02574 | 62.89573 | 30807 ft | 516 kts | 129° |
| 2026-05-06 22:31 | 36.98244 | 62.96747 | 30811 ft | 516 kts | 129° |
| 2026-05-06 22:32 | 36.93909 | 63.03914 | 30803 ft | 517 kts | 129° |
| 2026-05-06 22:32 | 36.89591 | 63.11038 | 30825 ft | 517 kts | 129° |
| 2026-05-06 22:33 | 36.85215 | 63.18244 | 30816 ft | 517 kts | 129° |
| 2026-05-06 22:33 | 36.80888 | 63.25351 | 30841 ft | 518 kts | 129° |
| 2026-05-06 22:34 | 36.76523 | 63.32508 | 30828 ft | 518 kts | 129° |
| 2026-05-06 22:34 | 36.72157 | 63.39651 | 30856 ft | 518 kts | 129° |
| 2026-05-06 22:35 | 36.67785 | 63.46786 | 30857 ft | 518 kts | 129° |
| 2026-05-06 22:35 | 36.63402 | 63.53927 | 30861 ft | 518 kts | 129° |
| 2026-05-06 22:36 | 36.59020 | 63.61051 | 30870 ft | 518 kts | 129° |
| 2026-05-06 22:36 | 36.54629 | 63.68174 | 30873 ft | 518 kts | 129° |
| 2026-05-06 22:37 | 36.50235 | 63.75285 | 30886 ft | 519 kts | 129° |
| 2026-05-06 22:37 | 36.45833 | 63.82398 | 30879 ft | 519 kts | 129° |
| 2026-05-06 22:38 | 36.41447 | 63.89469 | 30880 ft | 519 kts | 129° |
| 2026-05-06 22:38 | 36.37033 | 63.96570 | 30873 ft | 519 kts | 129° |
| 2026-05-06 22:39 | 36.32614 | 64.03665 | 30895 ft | 519 kts | 129° |
| 2026-05-06 22:39 | 36.28195 | 64.10746 | 30891 ft | 519 kts | 129° |
| 2026-05-06 22:40 | 36.23766 | 64.17826 | 30894 ft | 519 kts | 129° |
| 2026-05-06 22:40 | 36.19334 | 64.24902 | 30889 ft | 519 kts | 129° |
| 2026-05-06 22:41 | 36.12799 | 64.35521 | 30904 ft | 519 kts | 127° |
| 2026-05-06 22:42 | 36.08544 | 64.42749 | 30909 ft | 520 kts | 127° |
| 2026-05-06 22:42 | 36.04285 | 64.49969 | 30909 ft | 519 kts | 127° |
| 2026-05-06 22:43 | 36.00007 | 64.57159 | 30922 ft | 519 kts | 127° |
| 2026-05-06 22:43 | 35.95718 | 64.64330 | 30923 ft | 519 kts | 127° |
| 2026-05-06 22:44 | 35.91419 | 64.71500 | 30927 ft | 519 kts | 127° |
| 2026-05-06 22:44 | 35.87121 | 64.78657 | 30943 ft | 519 kts | 127° |
| 2026-05-06 22:45 | 35.82818 | 64.85810 | 30945 ft | 519 kts | 127° |
| 2026-05-06 22:45 | 35.78539 | 64.92909 | 30969 ft | 519 kts | 127° |
| 2026-05-06 22:46 | 35.74231 | 65.00039 | 31008 ft | 518 kts | 127° |
| 2026-05-06 22:46 | 35.69920 | 65.07161 | 30991 ft | 518 kts | 127° |
| 2026-05-06 22:47 | 35.65618 | 65.14255 | 31029 ft | 517 kts | 127° |
| 2026-05-06 22:47 | 35.61311 | 65.21340 | 31046 ft | 517 kts | 127° |
| 2026-05-06 22:48 | 35.57000 | 65.28419 | 31060 ft | 517 kts | 127° |
| 2026-05-06 22:48 | 35.52690 | 65.35480 | 31069 ft | 517 kts | 127° |
| 2026-05-06 22:49 | 35.48360 | 65.42561 | 31090 ft | 517 kts | 127° |
| 2026-05-06 22:49 | 35.44039 | 65.49612 | 31101 ft | 517 kts | 127° |
| 2026-05-06 22:50 | 35.39741 | 65.56613 | 31111 ft | 517 kts | 127° |
| 2026-05-06 22:50 | 35.35403 | 65.63664 | 31119 ft | 518 kts | 127° |
| 2026-05-06 22:51 | 35.31064 | 65.70702 | 31126 ft | 518 kts | 127° |
| 2026-05-06 22:51 | 35.27449 | 65.76555 | 31144 ft | 518 kts | 127° |
| 2026-05-06 22:52 | 35.22372 | 65.84759 | 31149 ft | 518 kts | 127° |
| 2026-05-06 22:52 | 35.18755 | 65.90592 | 31150 ft | 518 kts | 127° |
| 2026-05-06 22:53 | 35.14397 | 65.97608 | 31151 ft | 517 kts | 127° |
| 2026-05-06 22:53 | 35.10038 | 66.04611 | 31164 ft | 517 kts | 127° |
| 2026-05-06 22:54 | 35.05680 | 66.11598 | 31161 ft | 517 kts | 127° |
| 2026-05-06 22:54 | 35.01322 | 66.18574 | 31164 ft | 516 kts | 127° |
| 2026-05-06 22:55 | 34.96995 | 66.25488 | 31180 ft | 517 kts | 127° |
| 2026-05-06 22:55 | 34.92610 | 66.32430 | 31170 ft | 517 kts | 128° |
| 2026-05-06 22:56 | 34.88202 | 66.39360 | 31181 ft | 517 kts | 128° |
| 2026-05-06 22:56 | 34.83799 | 66.46279 | 31167 ft | 516 kts | 128° |
| 2026-05-06 22:57 | 34.79397 | 66.53189 | 31179 ft | 516 kts | 128° |
| 2026-05-06 22:57 | 34.74987 | 66.60100 | 31185 ft | 516 kts | 128° |
| 2026-05-06 22:58 | 34.70582 | 66.66990 | 31182 ft | 516 kts | 128° |
| 2026-05-06 22:58 | 34.66194 | 66.73838 | 31172 ft | 516 kts | 128° |
| 2026-05-06 22:59 | 34.61786 | 66.80708 | 31178 ft | 516 kts | 128° |
| 2026-05-06 22:59 | 34.57363 | 66.87586 | 31180 ft | 516 kts | 128° |
| 2026-05-06 23:00 | 34.52945 | 66.94442 | 31168 ft | 516 kts | 128° |
| 2026-05-06 23:00 | 34.48505 | 67.01288 | 31153 ft | 516 kts | 128° |
| 2026-05-06 23:01 | 34.44062 | 67.08121 | 31173 ft | 516 kts | 128° |
| 2026-05-06 23:01 | 34.39639 | 67.14917 | 31162 ft | 517 kts | 128° |
| 2026-05-06 23:02 | 34.35183 | 67.21753 | 31146 ft | 517 kts | 128° |
| 2026-05-06 23:02 | 34.30719 | 67.28588 | 31143 ft | 518 kts | 128° |
| 2026-05-06 23:03 | 34.26246 | 67.35423 | 31137 ft | 517 kts | 128° |
| 2026-05-06 23:03 | 34.21775 | 67.42243 | 31144 ft | 517 kts | 128° |
| 2026-05-06 23:04 | 34.17298 | 67.49059 | 31146 ft | 517 kts | 128° |
| 2026-05-06 23:04 | 34.12819 | 67.55865 | 31136 ft | 517 kts | 128° |
| 2026-05-06 23:05 | 34.08372 | 67.62611 | 31141 ft | 517 kts | 128° |
| 2026-05-06 23:05 | 34.03887 | 67.69402 | 31125 ft | 516 kts | 128° |
| 2026-05-06 23:06 | 33.99416 | 67.76162 | 31134 ft | 516 kts | 128° |
| 2026-05-06 23:06 | 33.94919 | 67.82906 | 31114 ft | 516 kts | 128° |
| 2026-05-06 23:07 | 33.90386 | 67.89616 | 31111 ft | 516 kts | 129° |
| 2026-05-06 23:07 | 33.85856 | 67.96311 | 31090 ft | 516 kts | 128° |
| 2026-05-06 23:08 | 33.81351 | 68.02971 | 31078 ft | 516 kts | 129° |
| 2026-05-06 23:08 | 33.76808 | 68.09678 | 31085 ft | 516 kts | 128° |
| 2026-05-06 23:09 | 33.72261 | 68.16379 | 31070 ft | 517 kts | 128° |
| 2026-05-06 23:09 | 33.67715 | 68.23066 | 31064 ft | 517 kts | 128° |
| 2026-05-06 23:10 | 33.63191 | 68.29708 | 31030 ft | 516 kts | 128° |
| 2026-05-06 23:10 | 33.58650 | 68.36364 | 30995 ft | 516 kts | 128° |
| 2026-05-06 23:11 | 33.54102 | 68.43012 | 30989 ft | 515 kts | 129° |
| 2026-05-06 23:11 | 33.49470 | 68.49568 | 30966 ft | 515 kts | 130° |
| 2026-05-06 23:12 | 33.44808 | 68.56076 | 30976 ft | 514 kts | 130° |
| 2026-05-06 23:12 | 33.40153 | 68.62596 | 30954 ft | 515 kts | 130° |
| 2026-05-06 23:13 | 33.35505 | 68.69117 | 30943 ft | 515 kts | 129° |
| 2026-05-06 23:13 | 33.30850 | 68.75637 | 30953 ft | 515 kts | 130° |
| 2026-05-06 23:14 | 33.26281 | 68.82165 | 30949 ft | 515 kts | 127° |
| 2026-05-06 23:14 | 33.21910 | 68.88953 | 30967 ft | 516 kts | 126° |
| 2026-05-06 23:15 | 33.17548 | 68.95786 | 30963 ft | 518 kts | 126° |
| 2026-05-06 23:15 | 33.13159 | 69.02606 | 30954 ft | 519 kts | 126° |
| 2026-05-06 23:16 | 33.08735 | 69.09440 | 30959 ft | 521 kts | 127° |
| 2026-05-06 23:16 | 33.04304 | 69.16269 | 30938 ft | 521 kts | 127° |
| 2026-05-06 23:17 | 32.99856 | 69.23115 | 30948 ft | 522 kts | 126° |
| 2026-05-06 23:17 | 32.95400 | 69.29963 | 30912 ft | 523 kts | 126° |
| 2026-05-06 23:18 | 32.90975 | 69.36750 | 30924 ft | 522 kts | 126° |
| 2026-05-06 23:18 | 32.86517 | 69.43578 | 30895 ft | 522 kts | 126° |
| 2026-05-06 23:19 | 32.82044 | 69.50390 | 30900 ft | 522 kts | 127° |
| 2026-05-06 23:19 | 32.77562 | 69.57193 | 30880 ft | 522 kts | 126° |
| 2026-05-06 23:20 | 32.73088 | 69.63980 | 30866 ft | 522 kts | 126° |
| 2026-05-06 23:20 | 32.68603 | 69.70773 | 30870 ft | 522 kts | 127° |
| 2026-05-06 23:21 | 32.64121 | 69.77550 | 30845 ft | 522 kts | 127° |
| 2026-05-06 23:21 | 32.59663 | 69.84277 | 30848 ft | 522 kts | 127° |
| 2026-05-06 23:22 | 32.55174 | 69.91038 | 30829 ft | 522 kts | 126° |
| 2026-05-06 23:22 | 32.50673 | 69.97807 | 30811 ft | 522 kts | 127° |
| 2026-05-06 23:23 | 32.46177 | 70.04558 | 30804 ft | 522 kts | 127° |
| 2026-05-06 23:23 | 32.41673 | 70.11307 | 30788 ft | 522 kts | 127° |
| 2026-05-06 23:24 | 32.37162 | 70.18056 | 30780 ft | 522 kts | 127° |
| 2026-05-06 23:24 | 32.32718 | 70.24847 | 30770 ft | 522 kts | 125° |
| 2026-05-06 23:25 | 32.28329 | 70.31693 | 30744 ft | 522 kts | 125° |
| 2026-05-06 23:25 | 32.23955 | 70.38489 | 30728 ft | 522 kts | 125° |
| 2026-05-06 23:26 | 32.19541 | 70.45305 | 30728 ft | 522 kts | 125° |
| 2026-05-06 23:26 | 32.15118 | 70.52114 | 30718 ft | 522 kts | 126° |
| 2026-05-06 23:27 | 32.10690 | 70.58922 | 30728 ft | 523 kts | 125° |
| 2026-05-06 23:27 | 32.06255 | 70.65729 | 30719 ft | 523 kts | 125° |
| 2026-05-06 23:28 | 32.01819 | 70.72527 | 30722 ft | 523 kts | 125° |
| 2026-05-06 23:28 | 31.97376 | 70.79323 | 30715 ft | 523 kts | 125° |
| 2026-05-06 23:29 | 31.92927 | 70.86122 | 30704 ft | 523 kts | 125° |
| 2026-05-06 23:29 | 31.89065 | 70.93268 | 30720 ft | 519 kts | 114° |
| 2026-05-06 23:30 | 31.85754 | 71.00815 | 30718 ft | 520 kts | 114° |
| 2026-05-06 23:30 | 31.82398 | 71.08370 | 30717 ft | 520 kts | 115° |
| 2026-05-06 23:31 | 31.79006 | 71.15895 | 30716 ft | 521 kts | 115° |
| 2026-05-06 23:31 | 31.75597 | 71.23416 | 30713 ft | 521 kts | 115° |
| 2026-05-06 23:32 | 31.72190 | 71.30926 | 30709 ft | 521 kts | 115° |
| 2026-05-06 23:32 | 31.68777 | 71.38436 | 30716 ft | 521 kts | 115° |
| 2026-05-06 23:33 | 31.65376 | 71.45908 | 30713 ft | 521 kts | 115° |
| 2026-05-06 23:33 | 31.61954 | 71.53412 | 30717 ft | 521 kts | 115° |
| 2026-05-06 23:34 | 31.58523 | 71.60922 | 30724 ft | 522 kts | 115° |
| 2026-05-06 23:34 | 31.55087 | 71.68424 | 30719 ft | 523 kts | 115° |
| 2026-05-06 23:35 | 31.51644 | 71.75930 | 30717 ft | 523 kts | 115° |
| 2026-05-06 23:35 | 31.48191 | 71.83445 | 30717 ft | 523 kts | 115° |
| 2026-05-06 23:36 | 31.44733 | 71.90958 | 30731 ft | 524 kts | 115° |
| 2026-05-06 23:36 | 31.41261 | 71.98485 | 30729 ft | 525 kts | 115° |
| 2026-05-06 23:37 | 31.37794 | 72.05991 | 30826 ft | 529 kts | 115° |
| 2026-05-06 23:37 | 31.36042 | 72.09776 | 31114 ft | 529 kts | 115° |
| 2026-05-06 23:37 | 31.34284 | 72.13570 | 31440 ft | 529 kts | 115° |
| 2026-05-06 23:37 | 31.32530 | 72.17355 | 31749 ft | 529 kts | 116° |
| 2026-05-06 23:38 | 31.30776 | 72.21134 | 32046 ft | 529 kts | 116° |
| 2026-05-06 23:38 | 31.29073 | 72.24937 | 32299 ft | 527 kts | 111° |
| 2026-05-06 23:38 | 31.27893 | 72.28973 | 32479 ft | 524 kts | 98° |
| 2026-05-06 23:38 | 31.27346 | 72.33169 | 32647 ft | 519 kts | 89° |
| 2026-05-06 23:39 | 31.27353 | 72.37360 | 32693 ft | 514 kts | 78° |
| 2026-05-06 23:39 | 31.28373 | 72.45564 | 32729 ft | 513 kts | 77° |
| 2026-05-06 23:40 | 31.29377 | 72.53804 | 32738 ft | 511 kts | 77° |
| 2026-05-06 23:40 | 31.30307 | 72.62032 | 32764 ft | 510 kts | 78° |
| 2026-05-06 23:41 | 31.31211 | 72.70270 | 32746 ft | 510 kts | 78° |
| 2026-05-06 23:41 | 31.32111 | 72.78491 | 32746 ft | 509 kts | 78° |
| 2026-05-06 23:42 | 31.33010 | 72.86708 | 32750 ft | 509 kts | 78° |
| 2026-05-06 23:42 | 31.33753 | 72.93542 | 32748 ft | 509 kts | 78° |
| 2026-05-06 23:43 | 31.34644 | 73.01777 | 32754 ft | 510 kts | 77° |
| 2026-05-06 23:43 | 31.35532 | 73.10004 | 32751 ft | 510 kts | 78° |
| 2026-05-06 23:44 | 31.36416 | 73.18250 | 32755 ft | 511 kts | 78° |
| 2026-05-06 23:44 | 31.37290 | 73.26451 | 32763 ft | 511 kts | 78° |
| 2026-05-06 23:45 | 31.38164 | 73.34701 | 32758 ft | 511 kts | 78° |
| 2026-05-06 23:45 | 31.39032 | 73.42950 | 32760 ft | 511 kts | 78° |
| 2026-05-06 23:46 | 31.39895 | 73.51203 | 32760 ft | 510 kts | 78° |
| 2026-05-06 23:46 | 31.40752 | 73.59449 | 32761 ft | 510 kts | 78° |
| 2026-05-06 23:47 | 31.41603 | 73.67678 | 32789 ft | 509 kts | 78° |
| 2026-05-06 23:47 | 31.42446 | 73.75905 | 32766 ft | 509 kts | 78° |
| 2026-05-06 23:48 | 31.43270 | 73.84146 | 32766 ft | 509 kts | 78° |
| 2026-05-06 23:48 | 31.44088 | 73.92375 | 32766 ft | 508 kts | 78° |
| 2026-05-06 23:49 | 31.44559 | 74.00610 | 32788 ft | 514 kts | 87° |
| 2026-05-06 23:49 | 31.43740 | 74.08969 | 32771 ft | 521 kts | 98° |
| 2026-05-06 23:50 | 31.42121 | 74.17246 | 32775 ft | 521 kts | 99° |
| 2026-05-06 23:50 | 31.39713 | 74.29660 | 32776 ft | 521 kts | 98° |
| 2026-05-06 23:51 | 31.38147 | 74.37946 | 32798 ft | 521 kts | 99° |
| 2026-05-06 23:51 | 31.36576 | 74.46239 | 32779 ft | 522 kts | 99° |
| 2026-05-06 23:52 | 31.34996 | 74.54529 | 32777 ft | 523 kts | 99° |
| 2026-05-06 23:52 | 31.33143 | 74.62770 | 32779 ft | 525 kts | 103° |
| 2026-05-06 23:53 | 31.31087 | 74.70919 | 32780 ft | 526 kts | 103° |
| 2026-05-06 23:53 | 31.29013 | 74.79126 | 32782 ft | 526 kts | 103° |
| 2026-05-06 23:54 | 31.26960 | 74.87329 | 32778 ft | 526 kts | 103° |
| 2026-05-06 23:54 | 31.24908 | 74.95546 | 32778 ft | 526 kts | 103° |
| 2026-05-06 23:55 | 31.22854 | 75.03745 | 32777 ft | 526 kts | 103° |
| 2026-05-06 23:55 | 31.20792 | 75.11943 | 32784 ft | 526 kts | 103° |
| 2026-05-06 23:56 | 31.18726 | 75.20130 | 32769 ft | 525 kts | 104° |
| 2026-05-06 23:56 | 31.16655 | 75.28313 | 32780 ft | 525 kts | 104° |
| 2026-05-06 23:57 | 31.14595 | 75.36436 | 32783 ft | 525 kts | 104° |
| 2026-05-06 23:57 | 31.12513 | 75.44620 | 32802 ft | 525 kts | 104° |
| 2026-05-06 23:58 | 31.10182 | 75.52713 | 32784 ft | 526 kts | 109° |
| 2026-05-06 23:58 | 31.07507 | 75.60657 | 32780 ft | 526 kts | 110° |
| 2026-05-06 23:59 | 31.04823 | 75.68595 | 32779 ft | 525 kts | 109° |
| 2026-05-06 23:59 | 31.02167 | 75.76520 | 32781 ft | 524 kts | 109° |
| 2026-05-07 00:00 | 30.99530 | 75.84408 | 32783 ft | 522 kts | 109° |
| 2026-05-07 00:00 | 30.96880 | 75.92323 | 32798 ft | 526 kts | 109° |
| 2026-05-07 00:01 | 30.94210 | 76.00271 | 32791 ft | 529 kts | 110° |
| 2026-05-07 00:01 | 30.91532 | 76.08220 | 32794 ft | 530 kts | 110° |
| 2026-05-07 00:02 | 30.88835 | 76.16205 | 32815 ft | 527 kts | 110° |
| 2026-05-07 00:02 | 30.86187 | 76.24022 | 32778 ft | 514 kts | 110° |
| 2026-05-07 00:03 | 30.83563 | 76.31756 | 32794 ft | 514 kts | 110° |
| 2026-05-07 00:03 | 30.80949 | 76.39447 | 32797 ft | 514 kts | 110° |
| 2026-05-07 00:04 | 30.78300 | 76.47222 | 32809 ft | 521 kts | 110° |
| 2026-05-07 00:04 | 30.75604 | 76.55119 | 32809 ft | 527 kts | 111° |
| 2026-05-07 00:05 | 30.72899 | 76.63014 | 32812 ft | 524 kts | 111° |
| 2026-05-07 00:05 | 30.70206 | 76.70865 | 32822 ft | 522 kts | 111° |
| 2026-05-07 00:06 | 30.67028 | 76.78371 | 32829 ft | 520 kts | 121° |
| 2026-05-07 00:06 | 30.62796 | 76.85165 | 32849 ft | 519 kts | 128° |
| 2026-05-07 00:07 | 30.58385 | 76.91794 | 32804 ft | 519 kts | 128° |
| 2026-05-07 00:07 | 30.54005 | 76.98477 | 32818 ft | 519 kts | 128° |
| 2026-05-07 00:08 | 30.49653 | 77.05153 | 32810 ft | 518 kts | 128° |
| 2026-05-07 00:08 | 30.45295 | 77.11821 | 32828 ft | 518 kts | 128° |
| 2026-05-07 00:09 | 30.40626 | 77.18165 | 32820 ft | 517 kts | 139° |
| 2026-05-07 00:09 | 30.34852 | 77.23058 | 32854 ft | 513 kts | 153° |
| 2026-05-07 00:10 | 30.28505 | 77.26705 | 32834 ft | 512 kts | 156° |
| 2026-05-07 00:10 | 30.22098 | 77.30348 | 32821 ft | 513 kts | 156° |
| 2026-05-07 00:11 | 30.15724 | 77.34049 | 32818 ft | 513 kts | 155° |
| 2026-05-07 00:11 | 30.09344 | 77.37771 | 32833 ft | 514 kts | 155° |
| 2026-05-07 00:12 | 30.02994 | 77.41463 | 32816 ft | 514 kts | 156° |
| 2026-05-07 00:12 | 29.96888 | 77.45807 | 32824 ft | 519 kts | 144° |
| 2026-05-07 00:13 | 29.91207 | 77.50984 | 32829 ft | 521 kts | 144° |
| 2026-05-07 00:13 | 29.85512 | 77.56161 | 32834 ft | 521 kts | 144° |
| 2026-05-07 00:14 | 29.79787 | 77.61304 | 32823 ft | 522 kts | 145° |
| 2026-05-07 00:14 | 29.74045 | 77.66427 | 32832 ft | 522 kts | 145° |
| 2026-05-07 00:15 | 29.68295 | 77.71545 | 32831 ft | 523 kts | 145° |
| 2026-05-07 00:15 | 29.62570 | 77.76638 | 32831 ft | 524 kts | 145° |
| 2026-05-07 00:16 | 29.56799 | 77.81767 | 32835 ft | 524 kts | 145° |
| 2026-05-07 00:16 | 29.51020 | 77.86896 | 32827 ft | 525 kts | 146° |
| 2026-05-07 00:17 | 29.45240 | 77.92017 | 32837 ft | 525 kts | 146° |
| 2026-05-07 00:17 | 29.39445 | 77.97145 | 32857 ft | 526 kts | 146° |
| 2026-05-07 00:18 | 29.33644 | 78.02269 | 32846 ft | 526 kts | 146° |
| 2026-05-07 00:18 | 29.27838 | 78.07391 | 32825 ft | 526 kts | 146° |
| 2026-05-07 00:19 | 29.22073 | 78.12470 | 32850 ft | 526 kts | 146° |
| 2026-05-07 00:19 | 29.16259 | 78.17583 | 32856 ft | 526 kts | 146° |
| 2026-05-07 00:20 | 29.10452 | 78.22683 | 32851 ft | 527 kts | 146° |
| 2026-05-07 00:20 | 29.04637 | 78.27783 | 32854 ft | 527 kts | 146° |
| 2026-05-07 00:21 | 28.98803 | 78.32892 | 32853 ft | 527 kts | 146° |
| 2026-05-07 00:21 | 28.93003 | 78.37963 | 32855 ft | 530 kts | 146° |
| 2026-05-07 00:22 | 28.87140 | 78.43082 | 32863 ft | 532 kts | 146° |
| 2026-05-07 00:22 | 28.81250 | 78.48217 | 32855 ft | 533 kts | 146° |
| 2026-05-07 00:23 | 28.75350 | 78.53355 | 32821 ft | 534 kts | 146° |
| 2026-05-07 00:23 | 28.69433 | 78.58500 | 32843 ft | 535 kts | 146° |
| 2026-05-07 00:24 | 28.63498 | 78.63652 | 32839 ft | 537 kts | 146° |
| 2026-05-07 00:24 | 28.57552 | 78.68808 | 32851 ft | 537 kts | 146° |
| 2026-05-07 00:25 | 28.51608 | 78.73955 | 32829 ft | 536 kts | 146° |
| 2026-05-07 00:25 | 28.45744 | 78.79204 | 32820 ft | 538 kts | 141° |
| 2026-05-07 00:26 | 28.40451 | 78.85185 | 32822 ft | 539 kts | 137° |
| 2026-05-07 00:26 | 28.35202 | 78.91276 | 32823 ft | 539 kts | 138° |
| 2026-05-07 00:27 | 28.29919 | 78.97335 | 32829 ft | 539 kts | 138° |
| 2026-05-07 00:27 | 28.24613 | 79.03366 | 32830 ft | 539 kts | 138° |
| 2026-05-07 00:28 | 28.19306 | 79.09381 | 32811 ft | 539 kts | 139° |
| 2026-05-07 00:28 | 28.14029 | 79.15359 | 32825 ft | 539 kts | 139° |
| 2026-05-07 00:29 | 28.08719 | 79.21369 | 32828 ft | 540 kts | 139° |
| 2026-05-07 00:30 | 27.98074 | 79.33389 | 32835 ft | 540 kts | 139° |
| 2026-05-07 00:30 | 27.92741 | 79.39399 | 32839 ft | 541 kts | 139° |
| 2026-05-07 00:31 | 27.87405 | 79.45403 | 32848 ft | 541 kts | 139° |
| 2026-05-07 00:31 | 27.82077 | 79.51389 | 32841 ft | 540 kts | 139° |
| 2026-05-07 00:32 | 27.76746 | 79.57371 | 32842 ft | 540 kts | 139° |
| 2026-05-07 00:32 | 27.72316 | 79.62335 | 32850 ft | 539 kts | 139° |
| 2026-05-07 00:33 | 27.66339 | 79.69544 | 32844 ft | 542 kts | 134° |
| 2026-05-07 00:33 | 27.62325 | 79.74982 | 32857 ft | 543 kts | 133° |
| 2026-05-07 00:34 | 27.57495 | 79.81532 | 32858 ft | 544 kts | 133° |
| 2026-05-07 00:34 | 27.52619 | 79.88079 | 32870 ft | 545 kts | 134° |
| 2026-05-07 00:35 | 27.47719 | 79.94619 | 32870 ft | 547 kts | 134° |
| 2026-05-07 00:35 | 27.42802 | 80.01168 | 32871 ft | 548 kts | 134° |
| 2026-05-07 00:36 | 27.37873 | 80.07730 | 32864 ft | 548 kts | 134° |
| 2026-05-07 00:36 | 27.32972 | 80.14243 | 32877 ft | 548 kts | 134° |
| 2026-05-07 00:37 | 27.28042 | 80.20783 | 32879 ft | 549 kts | 134° |
| 2026-05-07 00:37 | 27.23108 | 80.27324 | 32886 ft | 549 kts | 134° |
| 2026-05-07 00:38 | 27.18164 | 80.33866 | 32889 ft | 548 kts | 134° |
| 2026-05-07 00:38 | 27.13225 | 80.40391 | 32868 ft | 548 kts | 134° |
| 2026-05-07 00:39 | 27.08282 | 80.46912 | 32895 ft | 548 kts | 134° |
| 2026-05-07 00:39 | 27.03336 | 80.53427 | 32901 ft | 548 kts | 134° |
| 2026-05-07 00:40 | 26.98391 | 80.59931 | 32902 ft | 548 kts | 134° |
| 2026-05-07 00:40 | 26.93433 | 80.66444 | 32909 ft | 549 kts | 134° |
| 2026-05-07 00:41 | 26.88472 | 80.72950 | 32921 ft | 549 kts | 134° |
| 2026-05-07 00:41 | 26.83541 | 80.79410 | 32906 ft | 550 kts | 135° |
| 2026-05-07 00:42 | 26.78656 | 80.86029 | 32900 ft | 553 kts | 128° |
| 2026-05-07 00:42 | 26.74909 | 80.93580 | 32916 ft | 557 kts | 115° |
| 2026-05-07 00:43 | 26.72485 | 81.01806 | 32914 ft | 557 kts | 107° |
| 2026-05-07 00:43 | 26.70397 | 81.10142 | 32916 ft | 556 kts | 107° |
| 2026-05-07 00:44 | 26.68272 | 81.18443 | 32921 ft | 555 kts | 107° |
| 2026-05-07 00:44 | 26.66096 | 81.26718 | 32916 ft | 554 kts | 107° |
| 2026-05-07 00:45 | 26.63903 | 81.34977 | 32917 ft | 554 kts | 108° |
| 2026-05-07 00:45 | 26.61708 | 81.43227 | 32909 ft | 553 kts | 108° |
| 2026-05-07 00:46 | 26.59534 | 81.51407 | 32915 ft | 551 kts | 108° |
| 2026-05-07 00:46 | 26.57346 | 81.59604 | 32910 ft | 551 kts | 108° |
| 2026-05-07 00:47 | 26.55150 | 81.67818 | 32910 ft | 551 kts | 109° |
| 2026-05-07 00:47 | 26.52954 | 81.76011 | 32905 ft | 551 kts | 109° |
| 2026-05-07 00:48 | 26.50752 | 81.84208 | 32900 ft | 551 kts | 109° |
| 2026-05-07 00:48 | 26.48545 | 81.92400 | 32900 ft | 551 kts | 109° |
| 2026-05-07 00:49 | 26.46332 | 82.00594 | 32892 ft | 551 kts | 109° |
| 2026-05-07 00:49 | 26.44120 | 82.08767 | 32898 ft | 551 kts | 109° |
| 2026-05-07 00:50 | 26.41897 | 82.16956 | 32899 ft | 551 kts | 109° |
| 2026-05-07 00:50 | 26.39695 | 82.25052 | 32892 ft | 550 kts | 109° |
| 2026-05-07 00:51 | 26.37451 | 82.33278 | 32897 ft | 551 kts | 109° |
| 2026-05-07 00:51 | 26.35233 | 82.41395 | 32882 ft | 551 kts | 109° |
| 2026-05-07 00:52 | 26.32991 | 82.49574 | 32894 ft | 552 kts | 109° |
| 2026-05-07 00:52 | 26.30740 | 82.57765 | 32890 ft | 553 kts | 110° |
| 2026-05-07 00:53 | 26.28480 | 82.65969 | 32888 ft | 554 kts | 110° |
| 2026-05-07 00:53 | 26.26207 | 82.74202 | 32882 ft | 555 kts | 110° |
| 2026-05-07 00:54 | 26.23946 | 82.82374 | 32882 ft | 556 kts | 110° |
| 2026-05-07 00:54 | 26.21661 | 82.90607 | 32880 ft | 556 kts | 110° |
| 2026-05-07 00:55 | 26.19371 | 82.98840 | 32877 ft | 557 kts | 110° |
| 2026-05-07 00:55 | 26.17075 | 83.07079 | 32871 ft | 556 kts | 110° |
| 2026-05-07 00:56 | 26.14775 | 83.15309 | 32869 ft | 556 kts | 110° |
| 2026-05-07 00:56 | 26.12474 | 83.23528 | 32868 ft | 555 kts | 111° |
| 2026-05-07 00:57 | 26.10171 | 83.31722 | 32832 ft | 555 kts | 111° |
| 2026-05-07 00:57 | 26.07872 | 83.39892 | 32867 ft | 553 kts | 111° |
| 2026-05-07 00:58 | 26.05584 | 83.47999 | 32860 ft | 553 kts | 111° |
| 2026-05-07 00:58 | 26.03263 | 83.56211 | 32876 ft | 552 kts | 111° |
| 2026-05-07 00:59 | 25.99807 | 83.68414 | 32873 ft | 552 kts | 111° |
| 2026-05-07 01:00 | 25.97514 | 83.76502 | 32877 ft | 551 kts | 111° |
| 2026-05-07 01:00 | 25.95208 | 83.84624 | 32874 ft | 551 kts | 111° |
| 2026-05-07 01:01 | 25.92895 | 83.92743 | 32889 ft | 551 kts | 112° |
| 2026-05-07 01:01 | 25.90577 | 84.00861 | 32880 ft | 551 kts | 112° |
| 2026-05-07 01:02 | 25.88255 | 84.08972 | 32871 ft | 551 kts | 112° |
| 2026-05-07 01:02 | 25.85932 | 84.17074 | 32880 ft | 551 kts | 112° |
| 2026-05-07 01:03 | 25.83601 | 84.25182 | 32847 ft | 551 kts | 112° |
| 2026-05-07 01:03 | 25.81283 | 84.33224 | 32869 ft | 551 kts | 112° |
| 2026-05-07 01:04 | 25.78943 | 84.41326 | 32879 ft | 551 kts | 112° |
| 2026-05-07 01:04 | 25.76597 | 84.49429 | 32879 ft | 552 kts | 112° |
| 2026-05-07 01:05 | 25.74243 | 84.57540 | 32885 ft | 553 kts | 112° |
| 2026-05-07 01:05 | 25.71881 | 84.65664 | 32882 ft | 553 kts | 112° |
| 2026-05-07 01:06 | 25.69514 | 84.73785 | 32886 ft | 553 kts | 112° |
| 2026-05-07 01:06 | 25.67140 | 84.81912 | 32880 ft | 553 kts | 113° |
| 2026-05-07 01:07 | 25.64764 | 84.90023 | 32882 ft | 553 kts | 113° |
| 2026-05-07 01:07 | 25.62403 | 84.98071 | 32884 ft | 553 kts | 113° |
| 2026-05-07 01:08 | 25.60021 | 85.06174 | 32875 ft | 552 kts | 113° |
| 2026-05-07 01:08 | 25.58085 | 85.14425 | 32885 ft | 556 kts | 105° |
| 2026-05-07 01:09 | 25.56673 | 85.22856 | 32885 ft | 556 kts | 104° |
| 2026-05-07 01:09 | 25.55260 | 85.31277 | 32878 ft | 556 kts | 105° |
| 2026-05-07 01:10 | 25.53797 | 85.39701 | 32884 ft | 557 kts | 105° |
| 2026-05-07 01:10 | 25.52304 | 85.48154 | 32885 ft | 559 kts | 105° |
| 2026-05-07 01:11 | 25.50806 | 85.56602 | 32888 ft | 560 kts | 105° |
| 2026-05-07 01:11 | 25.49303 | 85.65072 | 32888 ft | 561 kts | 105° |
| 2026-05-07 01:12 | 25.47797 | 85.73547 | 32884 ft | 562 kts | 105° |
| 2026-05-07 01:12 | 25.46292 | 85.81980 | 32885 ft | 562 kts | 105° |
| 2026-05-07 01:13 | 25.44772 | 85.90466 | 32885 ft | 561 kts | 105° |
| 2026-05-07 01:13 | 25.43250 | 85.98934 | 32884 ft | 561 kts | 105° |
| 2026-05-07 01:14 | 25.41724 | 86.07398 | 32888 ft | 560 kts | 105° |
| 2026-05-07 01:14 | 25.40196 | 86.15838 | 32886 ft | 560 kts | 105° |
| 2026-05-07 01:15 | 25.38663 | 86.24285 | 32879 ft | 559 kts | 106° |
| 2026-05-07 01:15 | 25.37128 | 86.32709 | 32889 ft | 559 kts | 106° |
| 2026-05-07 01:16 | 25.35540 | 86.41115 | 32886 ft | 557 kts | 110° |
| 2026-05-07 01:16 | 25.33042 | 86.49135 | 32887 ft | 547 kts | 121° |
| 2026-05-07 01:17 | 25.29831 | 86.56673 | 32884 ft | 547 kts | 121° |
| 2026-05-07 01:17 | 25.26599 | 86.64298 | 32902 ft | 548 kts | 121° |
| 2026-05-07 01:18 | 25.23404 | 86.71950 | 32889 ft | 549 kts | 121° |
| 2026-05-07 01:18 | 25.20219 | 86.79615 | 32892 ft | 550 kts | 121° |
| 2026-05-07 01:19 | 25.17024 | 86.87290 | 32894 ft | 550 kts | 121° |
| 2026-05-07 01:19 | 25.13818 | 86.94966 | 32879 ft | 550 kts | 121° |
| 2026-05-07 01:20 | 25.10607 | 87.02638 | 32887 ft | 550 kts | 121° |
| 2026-05-07 01:20 | 25.07394 | 87.10300 | 32890 ft | 550 kts | 121° |
| 2026-05-07 01:21 | 25.04197 | 87.17909 | 32891 ft | 550 kts | 121° |
| 2026-05-07 01:21 | 25.00978 | 87.25561 | 32891 ft | 550 kts | 121° |
| 2026-05-07 01:22 | 24.97755 | 87.33206 | 32868 ft | 549 kts | 121° |
| 2026-05-07 01:22 | 24.95073 | 87.39561 | 32901 ft | 549 kts | 121° |
| 2026-05-07 01:23 | 24.91845 | 87.47197 | 32884 ft | 549 kts | 121° |
| 2026-05-07 01:23 | 24.88615 | 87.54822 | 32881 ft | 549 kts | 121° |
| 2026-05-07 01:24 | 24.85381 | 87.62444 | 32899 ft | 549 kts | 121° |
| 2026-05-07 01:24 | 24.82146 | 87.70058 | 32901 ft | 549 kts | 122° |
| 2026-05-07 01:25 | 24.78907 | 87.77670 | 32889 ft | 549 kts | 122° |
| 2026-05-07 01:25 | 24.75699 | 87.85310 | 32893 ft | 550 kts | 121° |
| 2026-05-07 01:26 | 24.72585 | 87.92932 | 32897 ft | 550 kts | 121° |
| 2026-05-07 01:26 | 24.69432 | 88.00605 | 32893 ft | 550 kts | 121° |
| 2026-05-07 01:27 | 24.66258 | 88.08254 | 32889 ft | 549 kts | 121° |
| 2026-05-07 01:27 | 24.63061 | 88.15894 | 32891 ft | 549 kts | 121° |
| 2026-05-07 01:28 | 24.59863 | 88.23524 | 32900 ft | 549 kts | 121° |
| 2026-05-07 01:28 | 24.56667 | 88.31152 | 32902 ft | 550 kts | 121° |
| 2026-05-07 01:29 | 24.53481 | 88.38743 | 32901 ft | 550 kts | 121° |
| 2026-05-07 01:29 | 24.50270 | 88.46383 | 32901 ft | 551 kts | 121° |
| 2026-05-07 01:30 | 24.47058 | 88.54012 | 32893 ft | 550 kts | 121° |
| 2026-05-07 01:30 | 24.44027 | 88.61740 | 32894 ft | 554 kts | 115° |
| 2026-05-07 01:31 | 24.42069 | 88.69980 | 32914 ft | 560 kts | 106° |
| 2026-05-07 01:31 | 24.40482 | 88.78344 | 32908 ft | 560 kts | 106° |
| 2026-05-07 01:32 | 24.38866 | 88.86655 | 32878 ft | 559 kts | 107° |
| 2026-05-07 01:32 | 24.37201 | 88.94962 | 32897 ft | 556 kts | 107° |
| 2026-05-07 01:33 | 24.35526 | 89.03227 | 32898 ft | 554 kts | 107° |
| 2026-05-07 01:33 | 24.33855 | 89.11456 | 32903 ft | 552 kts | 107° |
| 2026-05-07 01:34 | 24.32185 | 89.19678 | 32905 ft | 551 kts | 107° |
| 2026-05-07 01:34 | 24.30526 | 89.27821 | 32902 ft | 551 kts | 107° |
| 2026-05-07 01:35 | 24.28852 | 89.36020 | 32914 ft | 552 kts | 107° |
| 2026-05-07 01:35 | 24.27168 | 89.44238 | 32912 ft | 553 kts | 107° |
| 2026-05-07 01:36 | 24.25479 | 89.52457 | 32911 ft | 554 kts | 107° |
| 2026-05-07 01:36 | 24.23781 | 89.60701 | 32909 ft | 554 kts | 107° |
| 2026-05-07 01:37 | 24.22077 | 89.68949 | 32909 ft | 555 kts | 107° |
| 2026-05-07 01:37 | 24.20368 | 89.77197 | 32905 ft | 555 kts | 107° |
| 2026-05-07 01:38 | 24.18653 | 89.85451 | 32907 ft | 555 kts | 107° |
| 2026-05-07 01:38 | 24.16936 | 89.93691 | 32906 ft | 555 kts | 107° |
| 2026-05-07 01:39 | 24.15216 | 90.01925 | 32908 ft | 554 kts | 107° |
| 2026-05-07 01:39 | 24.13491 | 90.10154 | 32916 ft | 554 kts | 107° |
| 2026-05-07 01:40 | 24.11776 | 90.18315 | 32917 ft | 553 kts | 107° |
| 2026-05-07 01:40 | 24.10046 | 90.26526 | 32907 ft | 554 kts | 107° |
| 2026-05-07 01:41 | 24.08308 | 90.34751 | 32910 ft | 554 kts | 107° |
| 2026-05-07 01:41 | 24.06572 | 90.42945 | 32890 ft | 552 kts | 107° |
| 2026-05-07 01:42 | 24.04825 | 90.51099 | 32905 ft | 549 kts | 108° |
| 2026-05-07 01:42 | 24.03078 | 90.59207 | 32917 ft | 547 kts | 108° |
| 2026-05-07 01:43 | 24.01331 | 90.67301 | 32907 ft | 546 kts | 108° |
| 2026-05-07 01:43 | 23.99587 | 90.75367 | 32917 ft | 545 kts | 108° |
| 2026-05-07 01:44 | 23.97851 | 90.83378 | 32918 ft | 544 kts | 108° |
| 2026-05-07 01:44 | 23.96101 | 90.91431 | 32915 ft | 544 kts | 108° |
| 2026-05-07 01:45 | 23.94348 | 90.99477 | 32916 ft | 544 kts | 108° |
| 2026-05-07 01:45 | 23.92589 | 91.07528 | 32914 ft | 545 kts | 108° |
| 2026-05-07 01:46 | 23.90824 | 91.15587 | 32914 ft | 545 kts | 108° |
| 2026-05-07 01:46 | 23.89053 | 91.23654 | 32948 ft | 546 kts | 108° |
| 2026-05-07 01:47 | 23.87374 | 91.31761 | 32934 ft | 548 kts | 106° |
| 2026-05-07 01:47 | 23.85784 | 91.39910 | 32935 ft | 548 kts | 106° |
| 2026-05-07 01:48 | 23.84185 | 91.48048 | 32933 ft | 548 kts | 107° |
| 2026-05-07 01:48 | 23.82571 | 91.56125 | 32937 ft | 548 kts | 107° |
| 2026-05-07 01:49 | 23.80932 | 91.64266 | 32920 ft | 549 kts | 107° |
| 2026-05-07 01:49 | 23.79289 | 91.72408 | 32928 ft | 549 kts | 107° |
| 2026-05-07 01:50 | 23.77638 | 91.80569 | 32931 ft | 550 kts | 107° |
| 2026-05-07 01:50 | 23.75986 | 91.88728 | 32929 ft | 550 kts | 107° |
| 2026-05-07 01:51 | 23.74332 | 91.96869 | 32930 ft | 549 kts | 107° |
| 2026-05-07 01:51 | 23.72673 | 92.05002 | 32930 ft | 549 kts | 107° |
| 2026-05-07 01:52 | 23.71012 | 92.13129 | 32941 ft | 548 kts | 107° |
| 2026-05-07 01:52 | 23.69347 | 92.21248 | 32939 ft | 548 kts | 107° |
| 2026-05-07 01:53 | 23.67678 | 92.29369 | 32948 ft | 548 kts | 107° |
| 2026-05-07 01:53 | 23.66003 | 92.37495 | 32944 ft | 549 kts | 107° |
| 2026-05-07 01:54 | 23.64335 | 92.45567 | 32948 ft | 548 kts | 107° |
| 2026-05-07 01:54 | 23.62653 | 92.53681 | 32966 ft | 548 kts | 107° |
| 2026-05-07 01:55 | 23.60971 | 92.61780 | 32956 ft | 548 kts | 107° |
| 2026-05-07 01:55 | 23.59376 | 92.69919 | 32952 ft | 549 kts | 105° |
| 2026-05-07 01:56 | 23.57895 | 92.78096 | 32962 ft | 550 kts | 105° |
| 2026-05-07 01:56 | 23.56409 | 92.86269 | 32953 ft | 550 kts | 105° |
| 2026-05-07 01:57 | 23.54892 | 92.94425 | 32988 ft | 549 kts | 105° |
| 2026-05-07 01:57 | 23.53365 | 93.02554 | 32991 ft | 547 kts | 105° |
| 2026-05-07 01:58 | 23.51839 | 93.10676 | 32982 ft | 547 kts | 105° |
| 2026-05-07 01:58 | 23.50317 | 93.18757 | 32971 ft | 549 kts | 105° |
| 2026-05-07 01:59 | 23.48778 | 93.26907 | 32999 ft | 549 kts | 105° |
| 2026-05-07 01:59 | 23.47233 | 93.35074 | 32989 ft | 550 kts | 105° |
| 2026-05-07 02:00 | 23.45684 | 93.43244 | 32980 ft | 550 kts | 105° |
| 2026-05-07 02:00 | 23.44496 | 93.51485 | 33001 ft | 553 kts | 99° |
| 2026-05-07 02:01 | 23.43734 | 93.59837 | 32993 ft | 554 kts | 98° |
| 2026-05-07 02:01 | 23.42986 | 93.68137 | 32960 ft | 553 kts | 99° |
| 2026-05-07 02:02 | 23.42191 | 93.76471 | 32993 ft | 553 kts | 99° |
| 2026-05-07 02:02 | 23.41377 | 93.84786 | 32964 ft | 551 kts | 99° |
| 2026-05-07 02:03 | 23.40556 | 93.93072 | 32937 ft | 549 kts | 99° |
| 2026-05-07 02:03 | 23.39733 | 94.01337 | 32957 ft | 550 kts | 99° |
| 2026-05-07 02:04 | 23.38916 | 94.09635 | 32957 ft | 552 kts | 99° |
| 2026-05-07 02:04 | 23.38085 | 94.17955 | 32931 ft | 553 kts | 99° |
| 2026-05-07 02:05 | 23.37245 | 94.26290 | 32922 ft | 553 kts | 99° |
| 2026-05-07 02:05 | 23.36413 | 94.34530 | 32906 ft | 550 kts | 99° |
| 2026-05-07 02:06 | 23.35572 | 94.42797 | 32913 ft | 550 kts | 99° |
| 2026-05-07 02:06 | 23.34722 | 94.51118 | 32915 ft | 549 kts | 99° |
| 2026-05-07 02:07 | 23.33881 | 94.59313 | 32903 ft | 548 kts | 99° |
| 2026-05-07 02:07 | 23.32606 | 94.71658 | 32914 ft | 547 kts | 99° |
| 2026-05-07 02:08 | 23.31751 | 94.79879 | 32915 ft | 547 kts | 99° |
| 2026-05-07 02:08 | 23.30892 | 94.88093 | 32925 ft | 547 kts | 99° |
| 2026-05-07 02:09 | 23.30028 | 94.96310 | 32907 ft | 547 kts | 99° |
| 2026-05-07 02:09 | 23.29161 | 95.04524 | 32916 ft | 547 kts | 99° |
| 2026-05-07 02:10 | 23.28436 | 95.11366 | 32914 ft | 547 kts | 99° |
| 2026-05-07 02:10 | 23.27561 | 95.19576 | 32907 ft | 547 kts | 99° |
| 2026-05-07 02:11 | 23.26679 | 95.27801 | 32905 ft | 547 kts | 99° |
| 2026-05-07 02:11 | 23.25651 | 95.37346 | 32908 ft | 546 kts | 99° |
| 2026-05-07 02:12 | 23.24907 | 95.44222 | 32901 ft | 546 kts | 99° |
| 2026-05-07 02:12 | 23.24023 | 95.52357 | 32898 ft | 545 kts | 99° |
| 2026-05-07 02:13 | 23.23130 | 95.60534 | 32890 ft | 544 kts | 99° |
| 2026-05-07 02:13 | 23.22235 | 95.68688 | 32904 ft | 544 kts | 99° |
| 2026-05-07 02:14 | 23.21333 | 95.76862 | 32898 ft | 544 kts | 99° |
| 2026-05-07 02:14 | 23.20428 | 95.85022 | 32886 ft | 544 kts | 99° |
| 2026-05-07 02:15 | 23.19520 | 95.93179 | 32907 ft | 544 kts | 99° |
| 2026-05-07 02:15 | 23.18606 | 96.01350 | 32887 ft | 544 kts | 99° |
| 2026-05-07 02:16 | 23.17692 | 96.09472 | 32902 ft | 545 kts | 99° |
| 2026-05-07 02:16 | 23.16769 | 96.17645 | 32905 ft | 544 kts | 99° |
| 2026-05-07 02:17 | 23.15843 | 96.25803 | 32903 ft | 544 kts | 99° |
| 2026-05-07 02:17 | 23.14913 | 96.33960 | 32910 ft | 544 kts | 99° |
| 2026-05-07 02:18 | 23.13979 | 96.42121 | 32911 ft | 543 kts | 99° |
| 2026-05-07 02:18 | 23.13040 | 96.50278 | 32914 ft | 543 kts | 99° |
| 2026-05-07 02:19 | 23.12098 | 96.58423 | 32924 ft | 543 kts | 99° |
| 2026-05-07 02:19 | 23.11159 | 96.66507 | 32919 ft | 543 kts | 99° |
| 2026-05-07 02:20 | 23.10211 | 96.74640 | 32940 ft | 543 kts | 99° |
| 2026-05-07 02:20 | 23.09257 | 96.82777 | 32932 ft | 543 kts | 99° |
| 2026-05-07 02:21 | 23.08303 | 96.90905 | 32968 ft | 542 kts | 99° |
| 2026-05-07 02:21 | 23.07342 | 96.99027 | 32964 ft | 542 kts | 99° |
| 2026-05-07 02:22 | 23.06372 | 97.07153 | 32965 ft | 542 kts | 99° |
| 2026-05-07 02:22 | 23.05406 | 97.15259 | 32981 ft | 541 kts | 99° |
| 2026-05-07 02:23 | 23.04441 | 97.23318 | 32981 ft | 542 kts | 99° |
| 2026-05-07 02:23 | 23.03465 | 97.31422 | 32959 ft | 541 kts | 99° |
| 2026-05-07 02:24 | 23.02477 | 97.39532 | 32986 ft | 542 kts | 99° |
| 2026-05-07 02:24 | 23.01503 | 97.47643 | 32990 ft | 542 kts | 99° |
| 2026-05-07 02:25 | 23.00512 | 97.55780 | 32981 ft | 544 kts | 99° |
| 2026-05-07 02:25 | 22.99515 | 97.63909 | 32972 ft | 543 kts | 99° |
| 2026-05-07 02:26 | 22.98762 | 97.72051 | 32974 ft | 544 kts | 90° |
| 2026-05-07 02:26 | 22.99726 | 97.80167 | 32987 ft | 543 kts | 76° |
| 2026-05-07 02:27 | 23.02207 | 97.87849 | 32984 ft | 542 kts | 68° |
| 2026-05-07 02:27 | 23.04935 | 97.95485 | 32987 ft | 542 kts | 68° |
| 2026-05-07 02:28 | 23.07602 | 98.03135 | 32994 ft | 541 kts | 69° |
| 2026-05-07 02:28 | 23.10217 | 98.10800 | 32993 ft | 541 kts | 69° |
| 2026-05-07 02:29 | 23.12818 | 98.18468 | 32995 ft | 540 kts | 69° |
| 2026-05-07 02:29 | 23.15415 | 98.26123 | 33000 ft | 539 kts | 69° |
| 2026-05-07 02:30 | 23.18009 | 98.33773 | 32986 ft | 539 kts | 69° |
| 2026-05-07 02:30 | 23.20597 | 98.41412 | 33018 ft | 538 kts | 69° |
| 2026-05-07 02:31 | 23.23183 | 98.49067 | 33018 ft | 540 kts | 69° |
| 2026-05-07 02:31 | 23.25774 | 98.56750 | 33001 ft | 541 kts | 70° |
| 2026-05-07 02:32 | 23.28365 | 98.64448 | 33005 ft | 542 kts | 70° |
| 2026-05-07 02:32 | 23.30938 | 98.72106 | 32997 ft | 543 kts | 70° |
| 2026-05-07 02:33 | 23.33525 | 98.79816 | 33011 ft | 543 kts | 70° |
| 2026-05-07 02:33 | 23.36110 | 98.87535 | 33011 ft | 543 kts | 70° |
| 2026-05-07 02:34 | 23.38666 | 98.95269 | 33013 ft | 542 kts | 71° |
| 2026-05-07 02:34 | 23.41085 | 99.03035 | 33013 ft | 541 kts | 71° |
| 2026-05-07 02:35 | 23.43480 | 99.10805 | 33029 ft | 541 kts | 71° |
| 2026-05-07 02:35 | 23.45893 | 99.18566 | 33026 ft | 540 kts | 71° |
| 2026-05-07 02:36 | 23.48309 | 99.26322 | 33046 ft | 541 kts | 71° |
| 2026-05-07 02:36 | 23.50720 | 99.34085 | 33036 ft | 541 kts | 71° |
| 2026-05-07 02:37 | 23.53318 | 99.41728 | 33037 ft | 542 kts | 65° |
| 2026-05-07 02:37 | 23.56924 | 99.48927 | 33043 ft | 541 kts | 58° |
| 2026-05-07 02:38 | 23.60723 | 99.56023 | 33044 ft | 542 kts | 58° |
| 2026-05-07 02:38 | 23.64488 | 99.63155 | 33041 ft | 542 kts | 59° |
| 2026-05-07 02:39 | 23.68220 | 99.70318 | 33041 ft | 543 kts | 59° |
| 2026-05-07 02:39 | 23.71943 | 99.77483 | 33046 ft | 542 kts | 59° |
| 2026-05-07 02:40 | 23.75653 | 99.84649 | 33063 ft | 541 kts | 59° |
| 2026-05-07 02:40 | 23.79352 | 99.91790 | 33384 ft | 544 kts | 59° |
| 2026-05-07 02:41 | 23.81211 | 99.95376 | 33794 ft | 542 kts | 59° |
| 2026-05-07 02:41 | 23.83065 | 99.98950 | 34178 ft | 540 kts | 59° |
| 2026-05-07 02:41 | 23.84917 | 100.02527 | 34500 ft | 539 kts | 59° |
| 2026-05-07 02:41 | 23.86755 | 100.06083 | 34769 ft | 537 kts | 59° |
| 2026-05-07 02:42 | 23.88591 | 100.09638 | 34991 ft | 537 kts | 59° |
| 2026-05-07 02:42 | 23.90433 | 100.13209 | 35020 ft | 540 kts | 59° |
| 2026-05-07 02:42 | 23.94115 | 100.20355 | 35064 ft | 539 kts | 59° |
| 2026-05-07 02:43 | 23.97768 | 100.27457 | 35065 ft | 534 kts | 59° |
| 2026-05-07 02:43 | 24.01393 | 100.34505 | 35073 ft | 530 kts | 59° |
| 2026-05-07 02:44 | 24.05007 | 100.41549 | 35082 ft | 534 kts | 59° |
| 2026-05-07 02:44 | 24.08666 | 100.48689 | 35051 ft | 541 kts | 59° |
| 2026-05-07 02:45 | 24.12317 | 100.55826 | 35071 ft | 540 kts | 59° |
| 2026-05-07 02:45 | 24.15950 | 100.63022 | 35089 ft | 539 kts | 60° |
| 2026-05-07 02:46 | 24.19545 | 100.70222 | 35073 ft | 539 kts | 60° |
| 2026-05-07 02:46 | 24.23147 | 100.77433 | 35076 ft | 539 kts | 60° |
| 2026-05-07 02:47 | 24.26746 | 100.84641 | 35081 ft | 538 kts | 60° |
| 2026-05-07 02:47 | 24.30333 | 100.91832 | 35084 ft | 538 kts | 59° |
| 2026-05-07 02:48 | 24.33927 | 100.99044 | 35098 ft | 538 kts | 59° |
| 2026-05-07 02:48 | 24.37493 | 101.06213 | 35109 ft | 539 kts | 59° |
| 2026-05-07 02:49 | 24.41082 | 101.13439 | 35109 ft | 540 kts | 59° |
| 2026-05-07 02:49 | 24.44674 | 101.20684 | 35103 ft | 541 kts | 59° |
| 2026-05-07 02:50 | 24.48264 | 101.27940 | 35111 ft | 540 kts | 59° |
| 2026-05-07 02:50 | 24.51858 | 101.35204 | 35078 ft | 541 kts | 59° |
| 2026-05-07 02:51 | 24.55442 | 101.42466 | 35100 ft | 538 kts | 60° |
| 2026-05-07 02:51 | 24.59012 | 101.49717 | 35166 ft | 541 kts | 60° |
| 2026-05-07 02:52 | 24.62609 | 101.57018 | 35113 ft | 544 kts | 60° |
| 2026-05-07 02:52 | 24.66160 | 101.64324 | 35127 ft | 546 kts | 60° |
| 2026-05-07 02:53 | 24.69716 | 101.71699 | 35105 ft | 546 kts | 60° |
| 2026-05-07 02:53 | 24.73275 | 101.79078 | 35125 ft | 545 kts | 60° |
| 2026-05-07 02:54 | 24.76823 | 101.86427 | 35130 ft | 544 kts | 60° |
| 2026-05-07 02:54 | 24.80364 | 101.93785 | 35143 ft | 542 kts | 60° |
| 2026-05-07 02:55 | 24.83894 | 102.01127 | 35144 ft | 542 kts | 60° |
| 2026-05-07 02:55 | 24.87420 | 102.08470 | 35158 ft | 541 kts | 60° |
| 2026-05-07 02:56 | 24.90914 | 102.15756 | 35160 ft | 540 kts | 60° |
| 2026-05-07 02:56 | 24.94422 | 102.23087 | 35186 ft | 540 kts | 60° |
| 2026-05-07 02:57 | 24.97924 | 102.30420 | 35182 ft | 540 kts | 60° |
| 2026-05-07 02:57 | 25.01417 | 102.37744 | 35197 ft | 540 kts | 60° |
| 2026-05-07 02:58 | 25.04905 | 102.45078 | 35195 ft | 538 kts | 62° |
| 2026-05-07 02:58 | 25.06176 | 102.48893 | 35232 ft | 539 kts | 78° |
| 2026-05-07 02:58 | 25.06487 | 102.53000 | 35223 ft | 538 kts | 94° |
| 2026-05-07 02:59 | 25.05936 | 102.57069 | 35247 ft | 535 kts | 108° |
| 2026-05-07 02:59 | 25.04562 | 102.60850 | 35236 ft | 528 kts | 120° |
| 2026-05-07 02:59 | 25.01704 | 102.66874 | 35288 ft | 531 kts | 120° |
| 2026-05-07 03:00 | 24.97817 | 102.75385 | 35296 ft | 536 kts | 119° |
| 2026-05-07 03:00 | 24.94538 | 102.82806 | 35294 ft | 539 kts | 118° |
| 2026-05-07 03:01 | 24.91806 | 102.88970 | 35294 ft | 539 kts | 118° |
| 2026-05-07 03:01 | 24.88015 | 102.97613 | 35286 ft | 538 kts | 118° |
| 2026-05-07 03:02 | 24.85297 | 103.03845 | 35271 ft | 538 kts | 118° |
| 2026-05-07 03:02 | 24.82077 | 103.11208 | 35229 ft | 535 kts | 118° |
| 2026-05-07 03:03 | 24.78841 | 103.18577 | 35224 ft | 533 kts | 118° |
| 2026-05-07 03:03 | 24.75610 | 103.25919 | 35212 ft | 532 kts | 118° |
| 2026-05-07 03:04 | 24.72382 | 103.33245 | 35209 ft | 531 kts | 118° |
| 2026-05-07 03:04 | 24.69156 | 103.40554 | 35192 ft | 531 kts | 118° |
| 2026-05-07 03:05 | 24.65928 | 103.47857 | 35197 ft | 531 kts | 118° |
| 2026-05-07 03:05 | 24.62702 | 103.55144 | 35162 ft | 530 kts | 118° |
| 2026-05-07 03:06 | 24.59495 | 103.62379 | 35169 ft | 529 kts | 118° |
| 2026-05-07 03:06 | 24.56275 | 103.69633 | 35157 ft | 528 kts | 118° |
| 2026-05-07 03:07 | 24.53527 | 103.77144 | 35155 ft | 531 kts | 108° |
| 2026-05-07 03:07 | 24.51822 | 103.85044 | 35145 ft | 532 kts | 104° |
| 2026-05-07 03:08 | 24.50206 | 103.92973 | 35130 ft | 532 kts | 104° |
| 2026-05-07 03:08 | 24.48546 | 104.00889 | 35136 ft | 532 kts | 105° |
| 2026-05-07 03:09 | 24.46862 | 104.08763 | 35112 ft | 533 kts | 105° |
| 2026-05-07 03:09 | 24.45162 | 104.16679 | 35115 ft | 533 kts | 105° |
| 2026-05-07 03:10 | 24.43453 | 104.24595 | 35102 ft | 532 kts | 105° |
| 2026-05-07 03:10 | 24.41749 | 104.32500 | 35094 ft | 531 kts | 105° |
| 2026-05-07 03:11 | 24.40057 | 104.40334 | 35072 ft | 529 kts | 105° |
| 2026-05-07 03:11 | 24.38358 | 104.48176 | 35076 ft | 528 kts | 105° |
| 2026-05-07 03:12 | 24.36653 | 104.56005 | 35064 ft | 528 kts | 105° |
| 2026-05-07 03:12 | 24.34943 | 104.63838 | 35055 ft | 527 kts | 105° |
| 2026-05-07 03:13 | 24.33236 | 104.71667 | 35043 ft | 527 kts | 105° |
| 2026-05-07 03:13 | 24.31523 | 104.79491 | 35045 ft | 528 kts | 105° |
| 2026-05-07 03:14 | 24.29805 | 104.87320 | 35040 ft | 529 kts | 105° |
| 2026-05-07 03:15 | 24.27205 | 104.99095 | 35020 ft | 530 kts | 105° |
| 2026-05-07 03:15 | 24.25484 | 105.06891 | 35017 ft | 530 kts | 105° |
| 2026-05-07 03:16 | 24.23749 | 105.14739 | 35015 ft | 530 kts | 105° |
| 2026-05-07 03:16 | 24.22002 | 105.22576 | 35025 ft | 529 kts | 105° |
| 2026-05-07 03:17 | 24.20145 | 105.30372 | 35028 ft | 528 kts | 107° |
| 2026-05-07 03:17 | 24.18243 | 105.38103 | 35023 ft | 529 kts | 107° |
| 2026-05-07 03:18 | 24.16345 | 105.45883 | 35026 ft | 528 kts | 106° |
| 2026-05-07 03:18 | 24.14458 | 105.53654 | 35009 ft | 528 kts | 106° |
| 2026-05-07 03:19 | 24.12575 | 105.61421 | 35025 ft | 527 kts | 107° |
| 2026-05-07 03:19 | 24.10670 | 105.69176 | 35011 ft | 527 kts | 106° |
| 2026-05-07 03:20 | 24.08947 | 105.76939 | 35014 ft | 529 kts | 103° |
| 2026-05-07 03:20 | 24.07447 | 105.84830 | 35002 ft | 531 kts | 103° |
| 2026-05-07 03:21 | 24.05927 | 105.92760 | 34979 ft | 532 kts | 103° |
| 2026-05-07 03:21 | 24.04354 | 106.00665 | 34986 ft | 532 kts | 103° |
| 2026-05-07 03:22 | 24.02769 | 106.08558 | 34978 ft | 530 kts | 104° |
| 2026-05-07 03:22 | 24.01186 | 106.16418 | 34974 ft | 529 kts | 104° |
| 2026-05-07 03:23 | 23.99602 | 106.24262 | 34977 ft | 528 kts | 104° |
| 2026-05-07 03:23 | 23.98019 | 106.32084 | 34974 ft | 527 kts | 104° |
| 2026-05-07 03:24 | 23.96446 | 106.39851 | 34964 ft | 526 kts | 104° |
| 2026-05-07 03:24 | 23.94858 | 106.47660 | 34968 ft | 525 kts | 104° |
| 2026-05-07 03:25 | 23.93269 | 106.55453 | 34978 ft | 525 kts | 104° |
| 2026-05-07 03:25 | 23.91988 | 106.63321 | 34947 ft | 527 kts | 95° |
| 2026-05-07 03:26 | 23.91496 | 106.71316 | 34969 ft | 526 kts | 94° |
| 2026-05-07 03:26 | 23.91034 | 106.79244 | 34964 ft | 527 kts | 94° |
| 2026-05-07 03:27 | 23.90528 | 106.87236 | 34954 ft | 527 kts | 95° |
| 2026-05-07 03:27 | 23.89993 | 106.95227 | 34947 ft | 527 kts | 95° |
| 2026-05-07 03:28 | 23.89449 | 107.03227 | 34953 ft | 528 kts | 95° |
| 2026-05-07 03:28 | 23.88904 | 107.11222 | 34939 ft | 528 kts | 95° |
| 2026-05-07 03:29 | 23.88357 | 107.19221 | 34948 ft | 528 kts | 95° |
| 2026-05-07 03:29 | 23.87805 | 107.27223 | 34960 ft | 528 kts | 95° |
| 2026-05-07 03:30 | 23.87249 | 107.35232 | 34948 ft | 529 kts | 95° |
| 2026-05-07 03:30 | 23.86689 | 107.43239 | 34952 ft | 528 kts | 95° |
| 2026-05-07 03:31 | 23.86125 | 107.51231 | 34955 ft | 526 kts | 95° |
| 2026-05-07 03:31 | 23.85561 | 107.59195 | 34951 ft | 525 kts | 95° |
| 2026-05-07 03:32 | 23.84992 | 107.67152 | 34954 ft | 525 kts | 95° |
| 2026-05-07 03:32 | 23.84422 | 107.75052 | 34952 ft | 525 kts | 95° |
| 2026-05-07 03:33 | 23.83846 | 107.83000 | 34946 ft | 524 kts | 95° |
| 2026-05-07 03:33 | 23.83348 | 107.90938 | 34951 ft | 523 kts | 93° |
| 2026-05-07 03:34 | 23.82978 | 107.98877 | 34942 ft | 523 kts | 93° |
| 2026-05-07 03:34 | 23.82590 | 108.06811 | 34962 ft | 524 kts | 93° |
| 2026-05-07 03:35 | 23.82176 | 108.14767 | 34941 ft | 525 kts | 93° |
| 2026-05-07 03:35 | 23.81744 | 108.22723 | 34936 ft | 524 kts | 94° |
| 2026-05-07 03:36 | 23.81291 | 108.30675 | 34936 ft | 524 kts | 94° |
| 2026-05-07 03:36 | 23.80833 | 108.38628 | 34946 ft | 524 kts | 94° |
| 2026-05-07 03:37 | 23.80379 | 108.46519 | 34939 ft | 524 kts | 94° |
| 2026-05-07 03:37 | 23.79920 | 108.54468 | 34939 ft | 524 kts | 94° |
| 2026-05-07 03:38 | 23.79457 | 108.62408 | 34935 ft | 524 kts | 94° |
| 2026-05-07 03:38 | 23.78989 | 108.70349 | 34931 ft | 524 kts | 94° |
| 2026-05-07 03:39 | 23.78516 | 108.78302 | 34930 ft | 524 kts | 94° |
| 2026-05-07 03:39 | 23.78041 | 108.86214 | 34926 ft | 524 kts | 94° |
| 2026-05-07 03:40 | 23.77561 | 108.94148 | 34924 ft | 524 kts | 94° |
| 2026-05-07 03:40 | 23.77077 | 109.02085 | 34925 ft | 524 kts | 94° |
| 2026-05-07 03:41 | 23.76590 | 109.10026 | 34923 ft | 524 kts | 94° |
| 2026-05-07 03:41 | 23.75766 | 109.17904 | 34928 ft | 523 kts | 102° |
| 2026-05-07 03:42 | 23.74164 | 109.25651 | 34918 ft | 523 kts | 103° |
| 2026-05-07 03:42 | 23.72545 | 109.33371 | 34908 ft | 524 kts | 103° |
| 2026-05-07 03:43 | 23.70971 | 109.41112 | 34919 ft | 522 kts | 103° |
| 2026-05-07 03:43 | 23.69411 | 109.48844 | 34919 ft | 520 kts | 102° |
| 2026-05-07 03:44 | 23.67849 | 109.56550 | 34943 ft | 520 kts | 103° |
| 2026-05-07 03:44 | 23.66288 | 109.64205 | 34926 ft | 520 kts | 103° |
| 2026-05-07 03:45 | 23.64705 | 109.71897 | 34932 ft | 519 kts | 103° |
| 2026-05-07 03:45 | 23.63119 | 109.79577 | 34933 ft | 519 kts | 103° |
| 2026-05-07 03:46 | 23.61527 | 109.87276 | 34940 ft | 520 kts | 103° |
| 2026-05-07 03:46 | 23.59933 | 109.94972 | 34955 ft | 521 kts | 103° |
| 2026-05-07 03:47 | 23.58328 | 110.02694 | 34951 ft | 522 kts | 103° |
| 2026-05-07 03:47 | 23.56729 | 110.10374 | 34946 ft | 523 kts | 103° |
| 2026-05-07 03:48 | 23.55113 | 110.18112 | 34952 ft | 523 kts | 103° |
| 2026-05-07 03:48 | 23.53496 | 110.25839 | 34940 ft | 523 kts | 103° |
| 2026-05-07 03:49 | 23.51872 | 110.33580 | 34939 ft | 523 kts | 103° |
| 2026-05-07 03:49 | 23.50262 | 110.41324 | 34940 ft | 523 kts | 102° |
| 2026-05-07 03:50 | 23.48962 | 110.47752 | 34945 ft | 523 kts | 102° |
| 2026-05-07 03:50 | 23.47143 | 110.56734 | 34940 ft | 523 kts | 102° |
| 2026-05-07 03:51 | 23.45565 | 110.64462 | 34939 ft | 522 kts | 102° |
| 2026-05-07 03:51 | 23.43982 | 110.72186 | 34937 ft | 522 kts | 102° |
| 2026-05-07 03:52 | 23.42630 | 110.78644 | 34938 ft | 522 kts | 103° |
| 2026-05-07 03:52 | 23.40996 | 110.86305 | 34938 ft | 522 kts | 103° |
| 2026-05-07 03:53 | 23.39356 | 110.94007 | 34936 ft | 522 kts | 102° |
| 2026-05-07 03:53 | 23.37717 | 111.01703 | 34941 ft | 522 kts | 102° |
| 2026-05-07 03:54 | 23.36074 | 111.09408 | 34934 ft | 523 kts | 103° |
| 2026-05-07 03:54 | 23.34432 | 111.17116 | 34929 ft | 523 kts | 102° |
| 2026-05-07 03:55 | 23.32865 | 111.24848 | 34931 ft | 523 kts | 102° |
| 2026-05-07 03:55 | 23.31316 | 111.32582 | 34930 ft | 523 kts | 102° |
| 2026-05-07 03:56 | 23.29758 | 111.40269 | 34939 ft | 523 kts | 102° |
| 2026-05-07 03:56 | 23.28180 | 111.48001 | 34933 ft | 523 kts | 102° |
| 2026-05-07 03:57 | 23.26591 | 111.55728 | 34933 ft | 524 kts | 102° |
| 2026-05-07 03:57 | 23.24940 | 111.63437 | 34935 ft | 523 kts | 103° |
| 2026-05-07 03:58 | 23.23279 | 111.71142 | 34935 ft | 523 kts | 103° |
| 2026-05-07 03:58 | 23.21625 | 111.78856 | 34939 ft | 524 kts | 102° |
| 2026-05-07 03:59 | 23.19978 | 111.86582 | 34941 ft | 524 kts | 102° |
| 2026-05-07 03:59 | 23.18378 | 111.94309 | 34939 ft | 523 kts | 102° |
| 2026-05-07 04:00 | 23.16786 | 112.02028 | 34942 ft | 523 kts | 102° |
| 2026-05-07 04:00 | 23.15193 | 112.09685 | 34944 ft | 523 kts | 102° |
| 2026-05-07 04:01 | 23.13582 | 112.17394 | 34947 ft | 523 kts | 102° |
| 2026-05-07 04:01 | 23.11968 | 112.25094 | 34942 ft | 523 kts | 102° |
| 2026-05-07 04:02 | 23.10352 | 112.32794 | 34939 ft | 523 kts | 102° |
| 2026-05-07 04:02 | 23.08730 | 112.40503 | 34939 ft | 523 kts | 102° |
| 2026-05-07 04:03 | 23.07149 | 112.48206 | 34945 ft | 522 kts | 99° |
| 2026-05-07 04:03 | 23.06407 | 112.56037 | 34944 ft | 520 kts | 92° |
| 2026-05-07 04:04 | 23.05956 | 112.63891 | 34924 ft | 520 kts | 92° |
| 2026-05-07 04:04 | 23.05464 | 112.71735 | 34943 ft | 521 kts | 92° |
| 2026-05-07 04:05 | 23.04937 | 112.79549 | 34941 ft | 523 kts | 92° |
| 2026-05-07 04:05 | 23.04394 | 112.87432 | 34940 ft | 524 kts | 92° |
| 2026-05-07 04:06 | 23.03850 | 112.95321 | 34938 ft | 524 kts | 92° |
| 2026-05-07 04:06 | 23.03304 | 113.03223 | 34935 ft | 525 kts | 92° |
| 2026-05-07 04:07 | 23.02753 | 113.11137 | 34943 ft | 525 kts | 92° |
| 2026-05-07 04:07 | 23.02266 | 113.15054 | 34937 ft | 526 kts | 103° |
| 2026-05-07 04:07 | 23.01006 | 113.18792 | 34949 ft | 529 kts | 116° |
| 2026-05-07 04:07 | 22.99082 | 113.22193 | 34945 ft | 530 kts | 128° |
| 2026-05-07 04:08 | 22.96568 | 113.25106 | 34947 ft | 527 kts | 138° |
| 2026-05-07 04:08 | 22.91126 | 113.30468 | 34948 ft | 529 kts | 138° |
| 2026-05-07 04:09 | 22.85748 | 113.35845 | 34949 ft | 530 kts | 137° |
| 2026-05-07 04:09 | 22.80371 | 113.41326 | 34954 ft | 531 kts | 137° |
| 2026-05-07 04:10 | 22.74999 | 113.46827 | 34958 ft | 530 kts | 137° |
| 2026-05-07 04:10 | 22.69641 | 113.52303 | 34944 ft | 528 kts | 137° |
| 2026-05-07 04:11 | 22.64316 | 113.57732 | 34953 ft | 525 kts | 137° |
| 2026-05-07 04:11 | 22.58995 | 113.63149 | 34952 ft | 523 kts | 137° |
| 2026-05-07 04:12 | 22.53722 | 113.68512 | 34950 ft | 522 kts | 137° |
| 2026-05-07 04:12 | 22.48438 | 113.73879 | 34940 ft | 521 kts | 137° |
| 2026-05-07 04:13 | 22.43148 | 113.79249 | 34951 ft | 521 kts | 137° |
| 2026-05-07 04:13 | 22.37855 | 113.84617 | 34936 ft | 521 kts | 137° |
| 2026-05-07 04:14 | 22.32791 | 113.90156 | 34944 ft | 522 kts | 133° |
| 2026-05-07 04:14 | 22.27936 | 113.95985 | 34946 ft | 522 kts | 132° |
| 2026-05-07 04:15 | 22.23056 | 114.01807 | 34945 ft | 522 kts | 130° |
| 2026-05-07 04:15 | 22.18849 | 114.08191 | 34947 ft | 522 kts | 121° |
| 2026-05-07 04:16 | 22.15048 | 114.14887 | 34949 ft | 523 kts | 121° |
| 2026-05-07 04:16 | 22.11243 | 114.21536 | 34961 ft | 524 kts | 121° |
| 2026-05-07 04:17 | 22.07373 | 114.28211 | 34967 ft | 526 kts | 122° |
| 2026-05-07 04:17 | 22.03481 | 114.34889 | 34966 ft | 527 kts | 122° |
| 2026-05-07 04:18 | 21.99579 | 114.41579 | 34963 ft | 527 kts | 122° |
| 2026-05-07 04:18 | 21.95671 | 114.48278 | 34965 ft | 528 kts | 122° |
| 2026-05-07 04:19 | 21.91762 | 114.54970 | 34965 ft | 528 kts | 122° |
| 2026-05-07 04:19 | 21.87850 | 114.61660 | 34962 ft | 528 kts | 122° |
| 2026-05-07 04:20 | 21.83932 | 114.68351 | 34964 ft | 528 kts | 122° |
| 2026-05-07 04:20 | 21.80022 | 114.75024 | 34964 ft | 527 kts | 122° |
| 2026-05-07 04:21 | 21.75110 | 114.85520 | 34967 ft | 524 kts | 103° |
| 2026-05-07 04:21 | 21.74197 | 114.93236 | 34965 ft | 519 kts | 87° |
| 2026-05-07 04:22 | 21.74305 | 115.00951 | 34977 ft | 520 kts | 87° |
| 2026-05-07 04:22 | 21.74350 | 115.08736 | 34962 ft | 521 kts | 88° |
| 2026-05-07 04:23 | 21.74319 | 115.16591 | 34966 ft | 522 kts | 88° |
| 2026-05-07 04:23 | 21.74290 | 115.24366 | 34959 ft | 523 kts | 88° |
| 2026-05-07 04:24 | 21.74275 | 115.32191 | 34964 ft | 523 kts | 88° |
| 2026-05-07 04:24 | 21.74259 | 115.40018 | 34963 ft | 524 kts | 88° |
| 2026-05-07 04:25 | 21.74236 | 115.47818 | 34959 ft | 524 kts | 88° |
| 2026-05-07 04:25 | 21.74210 | 115.55650 | 34959 ft | 524 kts | 88° |
| 2026-05-07 04:26 | 21.74181 | 115.63487 | 34962 ft | 524 kts | 88° |
| 2026-05-07 04:26 | 21.74153 | 115.71314 | 34960 ft | 523 kts | 88° |
| 2026-05-07 04:27 | 21.74122 | 115.79141 | 34961 ft | 523 kts | 88° |
| 2026-05-07 04:27 | 21.74087 | 115.86954 | 34961 ft | 522 kts | 88° |
| 2026-05-07 04:28 | 21.74048 | 115.94772 | 34959 ft | 522 kts | 88° |
| 2026-05-07 04:28 | 21.74005 | 116.02573 | 34958 ft | 522 kts | 88° |
| 2026-05-07 04:29 | 21.73959 | 116.10381 | 34962 ft | 522 kts | 88° |
| 2026-05-07 04:29 | 21.73909 | 116.18185 | 34958 ft | 521 kts | 88° |
| 2026-05-07 04:30 | 21.73856 | 116.25938 | 34958 ft | 521 kts | 88° |
| 2026-05-07 04:30 | 21.73799 | 116.33734 | 34959 ft | 521 kts | 89° |
| 2026-05-07 04:31 | 21.73738 | 116.41536 | 34958 ft | 521 kts | 89° |
| 2026-05-07 04:31 | 21.73673 | 116.49337 | 34959 ft | 522 kts | 89° |
| 2026-05-07 04:32 | 21.73605 | 116.57134 | 34967 ft | 522 kts | 89° |
| 2026-05-07 04:32 | 21.73534 | 116.64933 | 34960 ft | 522 kts | 89° |
| 2026-05-07 04:33 | 21.73476 | 116.72745 | 34958 ft | 521 kts | 86° |
| 2026-05-07 04:33 | 21.74407 | 116.80407 | 34968 ft | 516 kts | 74° |
| 2026-05-07 04:34 | 21.76616 | 116.87723 | 34967 ft | 512 kts | 65° |
| 2026-05-07 04:34 | 21.79276 | 116.94843 | 34956 ft | 513 kts | 65° |
| 2026-05-07 04:35 | 21.81897 | 117.01930 | 34957 ft | 513 kts | 65° |
| 2026-05-07 04:35 | 21.84463 | 117.09005 | 34956 ft | 514 kts | 66° |
| 2026-05-07 04:36 | 21.87046 | 117.16173 | 34960 ft | 514 kts | 66° |
| 2026-05-07 04:36 | 21.89631 | 117.23353 | 34957 ft | 514 kts | 66° |
| 2026-05-07 04:37 | 21.92217 | 117.30537 | 34956 ft | 514 kts | 66° |
| 2026-05-07 04:37 | 21.94799 | 117.37722 | 34967 ft | 514 kts | 66° |
| 2026-05-07 04:38 | 21.97379 | 117.44914 | 34956 ft | 515 kts | 66° |
| 2026-05-07 04:38 | 22.00205 | 117.51922 | 34952 ft | 511 kts | 58° |
| 2026-05-07 04:39 | 22.03893 | 117.58447 | 34956 ft | 509 kts | 54° |
| 2026-05-07 04:39 | 22.07013 | 117.63834 | 34957 ft | 509 kts | 54° |
| 2026-05-07 04:40 | 22.10726 | 117.70339 | 34952 ft | 509 kts | 55° |
| 2026-05-07 04:40 | 22.14414 | 117.76873 | 34959 ft | 509 kts | 55° |
| 2026-05-07 04:41 | 22.18092 | 117.83401 | 34959 ft | 510 kts | 55° |
| 2026-05-07 04:41 | 22.21779 | 117.89948 | 34955 ft | 510 kts | 55° |
| 2026-05-07 04:42 | 22.25459 | 117.96488 | 34962 ft | 510 kts | 55° |
| 2026-05-07 04:42 | 22.29137 | 118.02986 | 34959 ft | 509 kts | 54° |
| 2026-05-07 04:43 | 22.32936 | 118.09445 | 34968 ft | 509 kts | 54° |
| 2026-05-07 04:43 | 22.36736 | 118.15904 | 34962 ft | 509 kts | 54° |
| 2026-05-07 04:44 | 22.40513 | 118.22377 | 34957 ft | 509 kts | 54° |
| 2026-05-07 04:44 | 22.44225 | 118.28903 | 34958 ft | 509 kts | 55° |
| 2026-05-07 04:45 | 22.47911 | 118.35451 | 34958 ft | 509 kts | 55° |
| 2026-05-07 04:45 | 22.51582 | 118.41955 | 34965 ft | 509 kts | 55° |
| 2026-05-07 04:46 | 22.55278 | 118.48498 | 34954 ft | 509 kts | 55° |
| 2026-05-07 04:46 | 22.58977 | 118.55033 | 34952 ft | 509 kts | 55° |
| 2026-05-07 04:47 | 22.62699 | 118.61548 | 34956 ft | 508 kts | 55° |
| 2026-05-07 04:47 | 22.66422 | 118.68065 | 34954 ft | 508 kts | 55° |
| 2026-05-07 04:48 | 22.70112 | 118.74546 | 34956 ft | 508 kts | 55° |
| 2026-05-07 04:48 | 22.73822 | 118.81073 | 34955 ft | 508 kts | 55° |
| 2026-05-07 04:49 | 22.77523 | 118.87595 | 34955 ft | 508 kts | 55° |
| 2026-05-07 04:49 | 22.81228 | 118.94130 | 34959 ft | 508 kts | 55° |
| 2026-05-07 04:50 | 22.84928 | 119.00665 | 34953 ft | 509 kts | 55° |
| 2026-05-07 04:50 | 22.88625 | 119.07204 | 34954 ft | 509 kts | 55° |
| 2026-05-07 04:51 | 22.92320 | 119.13747 | 34954 ft | 509 kts | 55° |
| 2026-05-07 04:51 | 22.96015 | 119.20299 | 34953 ft | 509 kts | 55° |
| 2026-05-07 04:52 | 22.99688 | 119.26818 | 34953 ft | 509 kts | 55° |
| 2026-05-07 04:52 | 23.03376 | 119.33374 | 34956 ft | 509 kts | 55° |
| 2026-05-07 04:53 | 23.07062 | 119.39936 | 34947 ft | 509 kts | 55° |
| 2026-05-07 04:53 | 23.10749 | 119.46506 | 34948 ft | 509 kts | 55° |
| 2026-05-07 04:54 | 23.14429 | 119.53073 | 34945 ft | 509 kts | 55° |
| 2026-05-07 04:54 | 23.18432 | 119.59345 | 34944 ft | 499 kts | 40° |
| 2026-05-07 04:55 | 23.21206 | 119.61536 | 34938 ft | 487 kts | 25° |
| 2026-05-07 04:55 | 23.24195 | 119.63270 | 34953 ft | 488 kts | 25° |
| 2026-05-07 04:55 | 23.30165 | 119.66882 | 34952 ft | 492 kts | 26° |
| 2026-05-07 04:56 | 23.36101 | 119.70624 | 34947 ft | 495 kts | 26° |
| 2026-05-07 04:56 | 23.42029 | 119.74387 | 34944 ft | 497 kts | 26° |
| 2026-05-07 04:57 | 23.48009 | 119.78171 | 34950 ft | 498 kts | 27° |
| 2026-05-07 04:57 | 23.53926 | 119.82132 | 34940 ft | 500 kts | 29° |
| 2026-05-07 04:58 | 23.59782 | 119.86226 | 34655 ft | 504 kts | 29° |
| 2026-05-07 04:58 | 23.62782 | 119.88316 | 33722 ft | 514 kts | 30° |
| 2026-05-07 04:58 | 23.65792 | 119.90407 | 32698 ft | 515 kts | 30° |
| 2026-05-07 04:59 | 23.68822 | 119.92504 | 31786 ft | 515 kts | 30° |
| 2026-05-07 04:59 | 23.71827 | 119.94581 | 30807 ft | 503 kts | 30° |
| 2026-05-07 04:59 | 23.74721 | 119.96583 | 30160 ft | 482 kts | 30° |
| 2026-05-07 04:59 | 23.77503 | 119.98508 | 29459 ft | 467 kts | 29° |
| 2026-05-07 05:00 | 23.80280 | 120.00424 | 28871 ft | 480 kts | 29° |
| 2026-05-07 05:00 | 23.83165 | 120.02409 | 28243 ft | 495 kts | 30° |
| 2026-05-07 05:00 | 23.86087 | 120.04426 | 27598 ft | 495 kts | 30° |
| 2026-05-07 05:00 | 23.88987 | 120.06434 | 26974 ft | 492 kts | 30° |
| 2026-05-07 05:01 | 23.91876 | 120.08437 | 26366 ft | 491 kts | 30° |
| 2026-05-07 05:01 | 23.94753 | 120.10434 | 25768 ft | 490 kts | 30° |
| 2026-05-07 05:01 | 23.97634 | 120.12432 | 25138 ft | 490 kts | 30° |
| 2026-05-07 05:01 | 24.00510 | 120.14427 | 24533 ft | 490 kts | 30° |
| 2026-05-07 05:02 | 24.03386 | 120.16423 | 23923 ft | 490 kts | 30° |
| 2026-05-07 05:02 | 24.06266 | 120.18424 | 23264 ft | 490 kts | 30° |
| 2026-05-07 05:02 | 24.09105 | 120.20397 | 22596 ft | 489 kts | 30° |
| 2026-05-07 05:02 | 24.11957 | 120.22381 | 22051 ft | 474 kts | 30° |
| 2026-05-07 05:03 | 24.14665 | 120.24268 | 21408 ft | 450 kts | 30° |
| 2026-05-07 05:03 | 24.17311 | 120.26105 | 20884 ft | 450 kts | 30° |
| 2026-05-07 05:03 | 24.19955 | 120.27940 | 20343 ft | 451 kts | 30° |
| 2026-05-07 05:03 | 24.22604 | 120.29783 | 19808 ft | 452 kts | 31° |
| 2026-05-07 05:04 | 24.25259 | 120.31636 | 19249 ft | 453 kts | 31° |
| 2026-05-07 05:04 | 24.27867 | 120.33459 | 18673 ft | 434 kts | 31° |
| 2026-05-07 05:04 | 24.30356 | 120.35200 | 18141 ft | 414 kts | 31° |
| 2026-05-07 05:04 | 24.32748 | 120.36873 | 17577 ft | 401 kts | 31° |
| 2026-05-07 05:05 | 24.35088 | 120.38507 | 17083 ft | 399 kts | 31° |
| 2026-05-07 05:05 | 24.37485 | 120.40178 | 16611 ft | 422 kts | 31° |
| 2026-05-07 05:05 | 24.40001 | 120.41931 | 16056 ft | 433 kts | 31° |
| 2026-05-07 05:05 | 24.42513 | 120.43688 | 15534 ft | 432 kts | 31° |
| 2026-05-07 05:06 | 24.45042 | 120.45459 | 15052 ft | 429 kts | 30° |
| 2026-05-07 05:06 | 24.47557 | 120.47221 | 14606 ft | 427 kts | 30° |
| 2026-05-07 05:06 | 24.50043 | 120.48964 | 14203 ft | 422 kts | 30° |
| 2026-05-07 05:06 | 24.52507 | 120.50692 | 13934 ft | 416 kts | 30° |
| 2026-05-07 05:07 | 24.54927 | 120.52389 | 13696 ft | 410 kts | 30° |
| 2026-05-07 05:07 | 24.57309 | 120.54060 | 13418 ft | 397 kts | 30° |
| 2026-05-07 05:07 | 24.59597 | 120.55667 | 12490 ft | 386 kts | 30° |
| 2026-05-07 05:07 | 24.61846 | 120.57245 | 11401 ft | 382 kts | 31° |
| 2026-05-07 05:08 | 24.64057 | 120.58796 | 10927 ft | 361 kts | 31° |
| 2026-05-07 05:08 | 24.66078 | 120.60220 | 10795 ft | 330 kts | 31° |
| 2026-05-07 05:08 | 24.67906 | 120.61545 | 10634 ft | 301 kts | 35° |
| 2026-05-07 05:08 | 24.69449 | 120.62955 | 10535 ft | 276 kts | 40° |
| 2026-05-07 05:09 | 24.70880 | 120.64397 | 10479 ft | 288 kts | 41° |
| 2026-05-07 05:09 | 24.72390 | 120.65931 | 10381 ft | 301 kts | 41° |
| 2026-05-07 05:09 | 24.73931 | 120.67485 | 10236 ft | 298 kts | 41° |
| 2026-05-07 05:09 | 24.75447 | 120.69003 | 10096 ft | 290 kts | 40° |
| 2026-05-07 05:10 | 24.76921 | 120.70470 | 9921 ft | 284 kts | 40° |
| 2026-05-07 05:10 | 24.78213 | 120.72107 | 9229 ft | 292 kts | 59° |
| 2026-05-07 05:10 | 24.79134 | 120.74069 | 8873 ft | 290 kts | 65° |
| 2026-05-07 05:10 | 24.79982 | 120.76111 | 8515 ft | 297 kts | 66° |
| 2026-05-07 05:11 | 24.80846 | 120.78178 | 8172 ft | 296 kts | 66° |
| 2026-05-07 05:11 | 24.81725 | 120.80229 | 7832 ft | 294 kts | 65° |
| 2026-05-07 05:11 | 24.82623 | 120.82277 | 7496 ft | 301 kts | 65° |
| 2026-05-07 05:11 | 24.83554 | 120.84368 | 7218 ft | 306 kts | 65° |
| 2026-05-07 05:12 | 24.84500 | 120.86471 | 7039 ft | 304 kts | 65° |
| 2026-05-07 05:12 | 24.85419 | 120.88498 | 6648 ft | 289 kts | 65° |
| 2026-05-07 05:12 | 24.86303 | 120.90444 | 6144 ft | 278 kts | 65° |
| 2026-05-07 05:12 | 24.87141 | 120.92288 | 5817 ft | 259 kts | 65° |
| 2026-05-07 05:13 | 24.87902 | 120.93962 | 5680 ft | 240 kts | 65° |
| 2026-05-07 05:13 | 24.88644 | 120.95595 | 5568 ft | 237 kts | 65° |
| 2026-05-07 05:13 | 24.89376 | 120.97207 | 5341 ft | 233 kts | 65° |
| 2026-05-07 05:13 | 24.90096 | 120.98792 | 5042 ft | 228 kts | 65° |
| 2026-05-07 05:14 | 24.90798 | 121.00335 | 4745 ft | 222 kts | 64° |
| 2026-05-07 05:14 | 24.91621 | 121.01735 | 4464 ft | 213 kts | 52° |
| 2026-05-07 05:14 | 24.92560 | 121.02970 | 4202 ft | 208 kts | 49° |
| 2026-05-07 05:14 | 24.93525 | 121.04186 | 3977 ft | 213 kts | 49° |
| 2026-05-07 05:15 | 24.94490 | 121.05404 | 3769 ft | 208 kts | 48° |
| 2026-05-07 05:15 | 24.95432 | 121.06592 | 3493 ft | 203 kts | 49° |
| 2026-05-07 05:15 | 24.96350 | 121.07757 | 3263 ft | 199 kts | 48° |
| 2026-05-07 05:15 | 24.97267 | 121.08899 | 2999 ft | 207 kts | 44° |
| 2026-05-07 05:16 | 24.98234 | 121.10127 | 2705 ft | 211 kts | 51° |
| 2026-05-07 05:16 | 24.99191 | 121.11322 | 2434 ft | 209 kts | 45° |
| 2026-05-07 05:16 | 25.00155 | 121.12495 | 2195 ft | 205 kts | 50° |
| 2026-05-07 05:16 | 25.01044 | 121.13713 | 1891 ft | 200 kts | 50° |
| 2026-05-07 05:17 | 25.01907 | 121.14845 | 1650 ft | 185 kts | 45° |
| 2026-05-07 05:17 | 25.02741 | 121.15857 | 1404 ft | 170 kts | 46° |
| 2026-05-07 05:17 | 25.03524 | 121.16838 | 1211 ft | 173 kts | 46° |
| 2026-05-07 05:17 | 25.04295 | 121.17813 | 1006 ft | 167 kts | 46° |
| 2026-05-07 05:18 | 25.05047 | 121.18766 | 811 ft | 163 kts | 43° |
| 2026-05-07 05:18 | 25.05802 | 121.19710 | 565 ft | 165 kts | 43° |
| 2026-05-07 05:18 | 25.06561 | 121.20650 | 379 ft | 162 kts | 45° |
| 2026-05-07 05:18 | 25.07279 | 121.21591 | 157 ft | 156 kts | 46° |
| 2026-05-07 05:19 | 25.07962 | 121.22430 | 108 ft | 133 kts | 50° |
| 2026-05-07 05:19 | 25.08458 | 121.23084 | 108 ft | 89 kts | 49° |
| 2026-05-07 05:19 | 25.08763 | 121.23470 | 106 ft | 44 kts | 49° |
| 2026-05-07 05:19 | 25.08898 | 121.23667 | 105 ft | 30 kts | 62° |
| 2026-05-07 05:20 | 25.08953 | 121.23852 | 106 ft | 12 kts | 79° |
| 2026-05-07 05:20 | 25.08959 | 121.23888 | 105 ft | 1 kts | 79° |
| 2026-05-07 05:20 | 25.08962 | 121.23904 | 104 ft | 2 kts | 79° |
| 2026-05-07 05:20 | 25.08965 | 121.23922 | 104 ft | 3 kts | 79° |
| 2026-05-07 05:21 | 25.08970 | 121.23954 | 106 ft | 7 kts | 79° |
| 2026-05-07 05:21 | 25.08996 | 121.24078 | 107 ft | 8 kts | 71° |
| 2026-05-07 05:21 | 25.09027 | 121.24130 | 107 ft | 8 kts | 51° |
| 2026-05-07 05:22 | 25.09064 | 121.24178 | 106 ft | 8 kts | 50° |
| 2026-05-07 05:22 | 25.09096 | 121.24219 | 107 ft | 7 kts | 52° |
| 2026-05-07 05:22 | 25.09081 | 121.24259 | 106 ft | 6 kts | 143° |
| 2026-05-07 05:22 | 25.09051 | 121.24286 | 105 ft | 6 kts | 140° |
| 2026-05-07 05:23 | 25.09032 | 121.24304 | 108 ft | 2 kts | 139° |
| 2026-05-07 05:23 | 25.09023 | 121.24313 | 106 ft | 2 kts | 139° |
| 2026-05-07 05:23 | 25.09019 | 121.24316 | 107 ft | 0 kts | 139° |
| 2026-05-07 05:24 | 25.09020 | 121.24316 | 107 ft | 0 kts | 139° |
| 2026-05-07 05:46 | 25.09020 | 121.24315 | 105 ft | 0 kts | 139° |
| 2026-05-07 06:01 | 25.09021 | 121.24315 | 106 ft | 0 kts | 139° |
| 2026-05-07 06:23 | 25.09021 | 121.24314 | 133 ft | 0 kts | 139° |
| 2026-05-07 06:36 | 25.09022 | 121.24314 | 106 ft | 0 kts | 139° |
| 2026-05-07 07:03 | 25.09022 | 121.24313 | 105 ft | 0 kts | 139° |
| 2026-05-07 07:16 | 25.09023 | 121.24313 | 105 ft | 0 kts | 139° |